<?xml version='1.0' encoding='UTF-8'?>
<gpx version="1.1" creator="https://www.komoot.de" xmlns="http://www.topografix.com/GPX/1/1" xmlns:xsi="http://www.w3.org/2001/XMLSchema-instance" xsi:schemaLocation="http://www.topografix.com/GPX/1/1 http://www.topografix.com/GPX/1/1/gpx.xsd">
  <metadata>
    <name>Gravel-Tour durch Kolbermoor</name>
    <author>
      <link href="https://www.komoot.de">
        <text>komoot</text>
        <type>text/html</type>
      </link>
    </author>
  </metadata>
  <trk>
    <name>Gravel-Tour durch Kolbermoor</name>
    <trkseg>
      <trkpt lat="47.775695" lon="12.322408">
        <ele>608.563392</ele>
        <time>2022-10-22T12:24:41.142Z</time>
      </trkpt>
      <trkpt lat="47.776555" lon="12.322439">
        <ele>608.563392</ele>
        <time>2022-10-22T12:24:58.880Z</time>
      </trkpt>
      <trkpt lat="47.777510" lon="12.322485">
        <ele>607.600149</ele>
        <time>2022-10-22T12:25:17.797Z</time>
      </trkpt>
      <trkpt lat="47.778173" lon="12.322512">
        <ele>606.903022</ele>
        <time>2022-10-22T12:25:30.786Z</time>
      </trkpt>
      <trkpt lat="47.778244" lon="12.322312">
        <ele>606.743256</ele>
        <time>2022-10-22T12:25:33.758Z</time>
      </trkpt>
      <trkpt lat="47.778289" lon="12.322113">
        <ele>606.608905</ele>
        <time>2022-10-22T12:25:36.515Z</time>
      </trkpt>
      <trkpt lat="47.778306" lon="12.322014">
        <ele>606.549656</ele>
        <time>2022-10-22T12:25:37.870Z</time>
      </trkpt>
      <trkpt lat="47.778323" lon="12.321779">
        <ele>606.412604</ele>
        <time>2022-10-22T12:25:41.004Z</time>
      </trkpt>
      <trkpt lat="47.778347" lon="12.321362">
        <ele>606.169922</ele>
        <time>2022-10-22T12:25:46.580Z</time>
      </trkpt>
      <trkpt lat="47.778364" lon="12.321252">
        <ele>606.104474</ele>
        <time>2022-10-22T12:25:48.081Z</time>
      </trkpt>
      <trkpt lat="47.778438" lon="12.320931">
        <ele>605.907695</ele>
        <time>2022-10-22T12:25:52.635Z</time>
      </trkpt>
      <trkpt lat="47.778973" lon="12.321171">
        <ele>605.425541</ele>
        <time>2022-10-22T12:26:04.539Z</time>
      </trkpt>
      <trkpt lat="47.779087" lon="12.321336">
        <ele>605.288320</ele>
        <time>2022-10-22T12:26:08.024Z</time>
      </trkpt>
      <trkpt lat="47.779302" lon="12.321426">
        <ele>605.101975</ele>
        <time>2022-10-22T12:26:12.815Z</time>
      </trkpt>
      <trkpt lat="47.780117" lon="12.320908">
        <ele>604.530035</ele>
        <time>2022-10-22T12:26:32.046Z</time>
      </trkpt>
      <trkpt lat="47.780428" lon="12.320905">
        <ele>604.329321</ele>
        <time>2022-10-22T12:26:38.482Z</time>
      </trkpt>
      <trkpt lat="47.780472" lon="12.320929">
        <ele>604.299077</ele>
        <time>2022-10-22T12:26:39.490Z</time>
      </trkpt>
      <trkpt lat="47.780596" lon="12.320574">
        <ele>604.125567</ele>
        <time>2022-10-22T12:26:44.997Z</time>
      </trkpt>
      <trkpt lat="47.780864" lon="12.320216">
        <ele>603.854537</ele>
        <time>2022-10-22T12:26:52.332Z</time>
      </trkpt>
      <trkpt lat="47.781314" lon="12.319915">
        <ele>603.352482</ele>
        <time>2022-10-22T12:27:02.210Z</time>
      </trkpt>
      <trkpt lat="47.782001" lon="12.319497">
        <ele>602.597211</ele>
        <time>2022-10-22T12:27:16.763Z</time>
      </trkpt>
      <trkpt lat="47.782343" lon="12.319072">
        <ele>602.143809</ele>
        <time>2022-10-22T12:27:25.537Z</time>
      </trkpt>
      <trkpt lat="47.782619" lon="12.318655">
        <ele>601.797606</ele>
        <time>2022-10-22T12:27:33.252Z</time>
      </trkpt>
      <trkpt lat="47.782657" lon="12.318717">
        <ele>601.748252</ele>
        <time>2022-10-22T12:27:37.174Z</time>
      </trkpt>
      <trkpt lat="47.782744" lon="12.318602">
        <ele>601.646406</ele>
        <time>2022-10-22T12:27:39.490Z</time>
      </trkpt>
      <trkpt lat="47.782867" lon="12.318447">
        <ele>601.505341</ele>
        <time>2022-10-22T12:27:42.682Z</time>
      </trkpt>
      <trkpt lat="47.782842" lon="12.318381">
        <ele>601.460783</ele>
        <time>2022-10-22T12:27:43.653Z</time>
      </trkpt>
      <trkpt lat="47.783293" lon="12.317792">
        <ele>600.935607</ele>
        <time>2022-10-22T12:27:55.746Z</time>
      </trkpt>
      <trkpt lat="47.784056" lon="12.316933">
        <ele>600.369347</ele>
        <time>2022-10-22T12:28:15.648Z</time>
      </trkpt>
      <trkpt lat="47.785133" lon="12.315923">
        <ele>599.915739</ele>
        <time>2022-10-22T12:28:43.047Z</time>
      </trkpt>
      <trkpt lat="47.786713" lon="12.314682">
        <ele>599.557272</ele>
        <time>2022-10-22T12:29:21.973Z</time>
      </trkpt>
      <trkpt lat="47.787172" lon="12.314251">
        <ele>599.253372</ele>
        <time>2022-10-22T12:29:33.554Z</time>
      </trkpt>
      <trkpt lat="47.787466" lon="12.313946">
        <ele>599.048953</ele>
        <time>2022-10-22T12:29:41.089Z</time>
      </trkpt>
      <trkpt lat="47.789520" lon="12.311568">
        <ele>597.350577</ele>
        <time>2022-10-22T12:30:33.624Z</time>
      </trkpt>
      <trkpt lat="47.791159" lon="12.309753">
        <ele>598.220104</ele>
        <time>2022-10-22T12:31:20.078Z</time>
      </trkpt>
      <trkpt lat="47.791690" lon="12.309019">
        <ele>600.905168</ele>
        <time>2022-10-22T12:31:46.311Z</time>
      </trkpt>
      <trkpt lat="47.792238" lon="12.308134">
        <ele>603.901198</ele>
        <time>2022-10-22T12:32:24.839Z</time>
      </trkpt>
      <trkpt lat="47.793028" lon="12.306336">
        <ele>611.895776</ele>
        <time>2022-10-22T12:33:41.205Z</time>
      </trkpt>
      <trkpt lat="47.793810" lon="12.304719">
        <ele>617.728451</ele>
        <time>2022-10-22T12:34:44.604Z</time>
      </trkpt>
      <trkpt lat="47.794133" lon="12.303497">
        <ele>620.887321</ele>
        <time>2022-10-22T12:35:16.008Z</time>
      </trkpt>
      <trkpt lat="47.794293" lon="12.301304">
        <ele>621.808790</ele>
        <time>2022-10-22T12:35:56.198Z</time>
      </trkpt>
      <trkpt lat="47.794369" lon="12.300845">
        <ele>621.964025</ele>
        <time>2022-10-22T12:36:02.445Z</time>
      </trkpt>
      <trkpt lat="47.794488" lon="12.300380">
        <ele>621.233296</ele>
        <time>2022-10-22T12:36:08.715Z</time>
      </trkpt>
      <trkpt lat="47.794724" lon="12.299853">
        <ele>620.039419</ele>
        <time>2022-10-22T12:36:16.386Z</time>
      </trkpt>
      <trkpt lat="47.794914" lon="12.299561">
        <ele>619.273140</ele>
        <time>2022-10-22T12:36:21.097Z</time>
      </trkpt>
      <trkpt lat="47.796782" lon="12.297527">
        <ele>611.699148</ele>
        <time>2022-10-22T12:36:59.561Z</time>
      </trkpt>
      <trkpt lat="47.797237" lon="12.297120">
        <ele>610.100847</ele>
        <time>2022-10-22T12:37:08.873Z</time>
      </trkpt>
      <trkpt lat="47.797381" lon="12.296977">
        <ele>609.709378</ele>
        <time>2022-10-22T12:37:11.928Z</time>
      </trkpt>
      <trkpt lat="47.797417" lon="12.296842">
        <ele>609.488719</ele>
        <time>2022-10-22T12:37:13.729Z</time>
      </trkpt>
      <trkpt lat="47.797455" lon="12.296616">
        <ele>609.134792</ele>
        <time>2022-10-22T12:37:16.524Z</time>
      </trkpt>
      <trkpt lat="47.797499" lon="12.296518">
        <ele>608.955720</ele>
        <time>2022-10-22T12:37:17.918Z</time>
      </trkpt>
      <trkpt lat="47.797963" lon="12.296077">
        <ele>607.710746</ele>
        <time>2022-10-22T12:37:27.876Z</time>
      </trkpt>
      <trkpt lat="47.797948" lon="12.296013">
        <ele>607.607771</ele>
        <time>2022-10-22T12:37:28.663Z</time>
      </trkpt>
      <trkpt lat="47.798048" lon="12.295845">
        <ele>607.266770</ele>
        <time>2022-10-22T12:37:31.428Z</time>
      </trkpt>
      <trkpt lat="47.798064" lon="12.295499">
        <ele>606.739896</ele>
        <time>2022-10-22T12:37:35.826Z</time>
      </trkpt>
      <trkpt lat="47.798069" lon="12.295383">
        <ele>606.563311</ele>
        <time>2022-10-22T12:37:37.240Z</time>
      </trkpt>
      <trkpt lat="47.798136" lon="12.295293">
        <ele>606.458676</ele>
        <time>2022-10-22T12:37:38.966Z</time>
      </trkpt>
      <trkpt lat="47.798227" lon="12.295245">
        <ele>606.370573</ele>
        <time>2022-10-22T12:37:40.840Z</time>
      </trkpt>
      <trkpt lat="47.798318" lon="12.295206">
        <ele>606.284156</ele>
        <time>2022-10-22T12:37:42.613Z</time>
      </trkpt>
      <trkpt lat="47.798771" lon="12.295275">
        <ele>605.868602</ele>
        <time>2022-10-22T12:37:51.378Z</time>
      </trkpt>
      <trkpt lat="47.798986" lon="12.295224">
        <ele>605.669923</ele>
        <time>2022-10-22T12:37:55.784Z</time>
      </trkpt>
      <trkpt lat="47.800500" lon="12.294340">
        <ele>604.579791</ele>
        <time>2022-10-22T12:38:30.364Z</time>
      </trkpt>
      <trkpt lat="47.800814" lon="12.294060">
        <ele>604.434101</ele>
        <time>2022-10-22T12:38:38.395Z</time>
      </trkpt>
      <trkpt lat="47.801325" lon="12.293473">
        <ele>604.177191</ele>
        <time>2022-10-22T12:38:51.874Z</time>
      </trkpt>
      <trkpt lat="47.801851" lon="12.292495">
        <ele>603.293640</ele>
        <time>2022-10-22T12:39:08.723Z</time>
      </trkpt>
      <trkpt lat="47.801799" lon="12.292347">
        <ele>603.173935</ele>
        <time>2022-10-22T12:39:11.031Z</time>
      </trkpt>
      <trkpt lat="47.801812" lon="12.292270">
        <ele>603.117033</ele>
        <time>2022-10-22T12:39:12.084Z</time>
      </trkpt>
      <trkpt lat="47.801954" lon="12.292124">
        <ele>602.932900</ele>
        <time>2022-10-22T12:39:15.371Z</time>
      </trkpt>
      <trkpt lat="47.802172" lon="12.291723">
        <ele>602.563172</ele>
        <time>2022-10-22T12:39:22.051Z</time>
      </trkpt>
      <trkpt lat="47.802417" lon="12.290949">
        <ele>601.928872</ele>
        <time>2022-10-22T12:39:33.133Z</time>
      </trkpt>
      <trkpt lat="47.802498" lon="12.290214">
        <ele>601.357511</ele>
        <time>2022-10-22T12:39:42.775Z</time>
      </trkpt>
      <trkpt lat="47.803091" lon="12.289904">
        <ele>600.639735</ele>
        <time>2022-10-22T12:39:55.231Z</time>
      </trkpt>
      <trkpt lat="47.803177" lon="12.289859">
        <ele>600.535629</ele>
        <time>2022-10-22T12:39:57.008Z</time>
      </trkpt>
      <trkpt lat="47.803128" lon="12.289660">
        <ele>600.373043</ele>
        <time>2022-10-22T12:39:59.886Z</time>
      </trkpt>
      <trkpt lat="47.803091" lon="12.289534">
        <ele>600.267556</ele>
        <time>2022-10-22T12:40:01.720Z</time>
      </trkpt>
      <trkpt lat="47.803064" lon="12.289431">
        <ele>600.188520</ele>
        <time>2022-10-22T12:40:03.174Z</time>
      </trkpt>
      <trkpt lat="47.803011" lon="12.289182">
        <ele>600.079987</ele>
        <time>2022-10-22T12:40:06.689Z</time>
      </trkpt>
      <trkpt lat="47.803001" lon="12.289054">
        <ele>600.026442</ele>
        <time>2022-10-22T12:40:08.438Z</time>
      </trkpt>
      <trkpt lat="47.803001" lon="12.288801">
        <ele>599.921317</ele>
        <time>2022-10-22T12:40:11.811Z</time>
      </trkpt>
      <trkpt lat="47.803003" lon="12.288704">
        <ele>599.880994</ele>
        <time>2022-10-22T12:40:13.159Z</time>
      </trkpt>
      <trkpt lat="47.803064" lon="12.287900">
        <ele>599.544796</ele>
        <time>2022-10-22T12:40:24.475Z</time>
      </trkpt>
      <trkpt lat="47.803085" lon="12.287621">
        <ele>599.428142</ele>
        <time>2022-10-22T12:40:28.592Z</time>
      </trkpt>
      <trkpt lat="47.803061" lon="12.287253">
        <ele>599.274515</ele>
        <time>2022-10-22T12:40:33.931Z</time>
      </trkpt>
      <trkpt lat="47.803026" lon="12.286825">
        <ele>599.095362</ele>
        <time>2022-10-22T12:40:39.964Z</time>
      </trkpt>
      <trkpt lat="47.803028" lon="12.286664">
        <ele>599.039831</ele>
        <time>2022-10-22T12:40:42.227Z</time>
      </trkpt>
      <trkpt lat="47.803087" lon="12.285896">
        <ele>598.786033</ele>
        <time>2022-10-22T12:40:52.690Z</time>
      </trkpt>
      <trkpt lat="47.803085" lon="12.285471">
        <ele>598.646491</ele>
        <time>2022-10-22T12:40:58.667Z</time>
      </trkpt>
      <trkpt lat="47.803088" lon="12.285096">
        <ele>598.523360</ele>
        <time>2022-10-22T12:41:03.926Z</time>
      </trkpt>
      <trkpt lat="47.802991" lon="12.284443">
        <ele>598.303783</ele>
        <time>2022-10-22T12:41:13.627Z</time>
      </trkpt>
      <trkpt lat="47.802882" lon="12.284008">
        <ele>598.121158</ele>
        <time>2022-10-22T12:41:20.344Z</time>
      </trkpt>
      <trkpt lat="47.802801" lon="12.283687">
        <ele>597.943381</ele>
        <time>2022-10-22T12:41:25.223Z</time>
      </trkpt>
      <trkpt lat="47.802748" lon="12.283438">
        <ele>597.807962</ele>
        <time>2022-10-22T12:41:29.060Z</time>
      </trkpt>
      <trkpt lat="47.802396" lon="12.281764">
        <ele>596.898550</ele>
        <time>2022-10-22T12:41:52.697Z</time>
      </trkpt>
      <trkpt lat="47.802459" lon="12.281679">
        <ele>596.832926</ele>
        <time>2022-10-22T12:41:54.404Z</time>
      </trkpt>
      <trkpt lat="47.802402" lon="12.281293">
        <ele>596.350361</ele>
        <time>2022-10-22T12:41:59.721Z</time>
      </trkpt>
      <trkpt lat="47.802213" lon="12.280112">
        <ele>594.787140</ele>
        <time>2022-10-22T12:42:14.968Z</time>
      </trkpt>
      <trkpt lat="47.802219" lon="12.279478">
        <ele>593.970719</ele>
        <time>2022-10-22T12:42:22.519Z</time>
      </trkpt>
      <trkpt lat="47.801940" lon="12.277182">
        <ele>590.366063</ele>
        <time>2022-10-22T12:42:50.195Z</time>
      </trkpt>
      <trkpt lat="47.801762" lon="12.275140">
        <ele>587.524155</ele>
        <time>2022-10-22T12:43:15.696Z</time>
      </trkpt>
      <trkpt lat="47.801645" lon="12.274289">
        <ele>586.455348</ele>
        <time>2022-10-22T12:43:26.655Z</time>
      </trkpt>
      <trkpt lat="47.801358" lon="12.272683">
        <ele>584.360635</ele>
        <time>2022-10-22T12:43:47.407Z</time>
      </trkpt>
      <trkpt lat="47.800411" lon="12.268372">
        <ele>578.551387</ele>
        <time>2022-10-22T12:44:43.484Z</time>
      </trkpt>
      <trkpt lat="47.799041" lon="12.262820">
        <ele>571.706277</ele>
        <time>2022-10-22T12:45:57.592Z</time>
      </trkpt>
      <trkpt lat="47.798820" lon="12.261731">
        <ele>570.620477</ele>
        <time>2022-10-22T12:46:12.402Z</time>
      </trkpt>
      <trkpt lat="47.798727" lon="12.260759">
        <ele>569.719713</ele>
        <time>2022-10-22T12:46:25.270Z</time>
      </trkpt>
      <trkpt lat="47.798579" lon="12.259960">
        <ele>569.036108</ele>
        <time>2022-10-22T12:46:36.199Z</time>
      </trkpt>
      <trkpt lat="47.797825" lon="12.256926">
        <ele>566.268151</ele>
        <time>2022-10-22T12:47:18.297Z</time>
      </trkpt>
      <trkpt lat="47.797643" lon="12.256051">
        <ele>565.457808</ele>
        <time>2022-10-22T12:47:30.257Z</time>
      </trkpt>
      <trkpt lat="47.797552" lon="12.254939">
        <ele>564.360279</ele>
        <time>2022-10-22T12:47:44.586Z</time>
      </trkpt>
      <trkpt lat="47.797518" lon="12.253997">
        <ele>563.427704</ele>
        <time>2022-10-22T12:47:56.639Z</time>
      </trkpt>
      <trkpt lat="47.797592" lon="12.253307">
        <ele>562.736953</ele>
        <time>2022-10-22T12:48:05.625Z</time>
      </trkpt>
      <trkpt lat="47.797610" lon="12.253160">
        <ele>562.577812</ele>
        <time>2022-10-22T12:48:07.534Z</time>
      </trkpt>
      <trkpt lat="47.797690" lon="12.252622">
        <ele>561.987806</ele>
        <time>2022-10-22T12:48:14.615Z</time>
      </trkpt>
      <trkpt lat="47.797725" lon="12.251816">
        <ele>561.122984</ele>
        <time>2022-10-22T12:48:24.910Z</time>
      </trkpt>
      <trkpt lat="47.797717" lon="12.251370">
        <ele>560.645262</ele>
        <time>2022-10-22T12:48:30.516Z</time>
      </trkpt>
      <trkpt lat="47.797580" lon="12.250628">
        <ele>559.813806</ele>
        <time>2022-10-22T12:48:40.270Z</time>
      </trkpt>
      <trkpt lat="47.796568" lon="12.247775">
        <ele>555.558360</ele>
        <time>2022-10-22T12:49:20.283Z</time>
      </trkpt>
      <trkpt lat="47.795634" lon="12.244063">
        <ele>549.453115</ele>
        <time>2022-10-22T12:50:08.044Z</time>
      </trkpt>
      <trkpt lat="47.795477" lon="12.242668">
        <ele>547.088113</ele>
        <time>2022-10-22T12:50:25.001Z</time>
      </trkpt>
      <trkpt lat="47.795464" lon="12.241422">
        <ele>544.867622</ele>
        <time>2022-10-22T12:50:39.767Z</time>
      </trkpt>
      <trkpt lat="47.795772" lon="12.235593">
        <ele>534.043486</ele>
        <time>2022-10-22T12:51:48.070Z</time>
      </trkpt>
      <trkpt lat="47.795728" lon="12.233560">
        <ele>531.392879</ele>
        <time>2022-10-22T12:52:13.636Z</time>
      </trkpt>
      <trkpt lat="47.795660" lon="12.231052">
        <ele>528.603410</ele>
        <time>2022-10-22T12:52:45.306Z</time>
      </trkpt>
      <trkpt lat="47.795610" lon="12.229873">
        <ele>527.370203</ele>
        <time>2022-10-22T12:53:00.546Z</time>
      </trkpt>
      <trkpt lat="47.795836" lon="12.229764">
        <ele>527.055564</ele>
        <time>2022-10-22T12:53:05.011Z</time>
      </trkpt>
      <trkpt lat="47.795409" lon="12.228796">
        <ele>526.025237</ele>
        <time>2022-10-22T12:53:19.907Z</time>
      </trkpt>
      <trkpt lat="47.795361" lon="12.228621">
        <ele>525.857057</ele>
        <time>2022-10-22T12:53:22.379Z</time>
      </trkpt>
      <trkpt lat="47.795329" lon="12.228500">
        <ele>525.741358</ele>
        <time>2022-10-22T12:53:24.015Z</time>
      </trkpt>
      <trkpt lat="47.795285" lon="12.228193">
        <ele>525.462065</ele>
        <time>2022-10-22T12:53:28.133Z</time>
      </trkpt>
      <trkpt lat="47.795257" lon="12.227426">
        <ele>524.870387</ele>
        <time>2022-10-22T12:53:38.263Z</time>
      </trkpt>
      <trkpt lat="47.795287" lon="12.226667">
        <ele>524.447793</ele>
        <time>2022-10-22T12:53:48.524Z</time>
      </trkpt>
      <trkpt lat="47.795268" lon="12.225490">
        <ele>523.793410</ele>
        <time>2022-10-22T12:54:04.313Z</time>
      </trkpt>
      <trkpt lat="47.795226" lon="12.223872">
        <ele>522.983901</ele>
        <time>2022-10-22T12:54:27.627Z</time>
      </trkpt>
      <trkpt lat="47.795293" lon="12.222898">
        <ele>522.516452</ele>
        <time>2022-10-22T12:54:41.705Z</time>
      </trkpt>
      <trkpt lat="47.795548" lon="12.220338">
        <ele>519.282455</ele>
        <time>2022-10-22T12:55:14.114Z</time>
      </trkpt>
      <trkpt lat="47.795631" lon="12.219256">
        <ele>517.309716</ele>
        <time>2022-10-22T12:55:26.430Z</time>
      </trkpt>
      <trkpt lat="47.795676" lon="12.217480">
        <ele>513.209490</ele>
        <time>2022-10-22T12:55:46.419Z</time>
      </trkpt>
      <trkpt lat="47.795676" lon="12.217148">
        <ele>512.443551</ele>
        <time>2022-10-22T12:55:50.395Z</time>
      </trkpt>
      <trkpt lat="47.795667" lon="12.216085">
        <ele>510.573015</ele>
        <time>2022-10-22T12:56:02.783Z</time>
      </trkpt>
      <trkpt lat="47.795588" lon="12.211420">
        <ele>503.614670</ele>
        <time>2022-10-22T12:56:59.463Z</time>
      </trkpt>
      <trkpt lat="47.795541" lon="12.209072">
        <ele>501.662437</ele>
        <time>2022-10-22T12:57:30.378Z</time>
      </trkpt>
      <trkpt lat="47.795565" lon="12.208259">
        <ele>501.616666</ele>
        <time>2022-10-22T12:57:42.033Z</time>
      </trkpt>
      <trkpt lat="47.795644" lon="12.207608">
        <ele>501.625014</ele>
        <time>2022-10-22T12:57:52.338Z</time>
      </trkpt>
      <trkpt lat="47.795597" lon="12.207312">
        <ele>501.628852</ele>
        <time>2022-10-22T12:57:56.863Z</time>
      </trkpt>
      <trkpt lat="47.795453" lon="12.206282">
        <ele>501.638299</ele>
        <time>2022-10-22T12:58:14.144Z</time>
      </trkpt>
      <trkpt lat="47.795518" lon="12.206203">
        <ele>501.634422</ele>
        <time>2022-10-22T12:58:16.376Z</time>
      </trkpt>
      <trkpt lat="47.795597" lon="12.206102">
        <ele>501.629610</ele>
        <time>2022-10-22T12:58:19.172Z</time>
      </trkpt>
      <trkpt lat="47.795596" lon="12.206019">
        <ele>501.627033</ele>
        <time>2022-10-22T12:58:20.450Z</time>
      </trkpt>
      <trkpt lat="47.795492" lon="12.205234">
        <ele>501.602197</ele>
        <time>2022-10-22T12:58:33.080Z</time>
      </trkpt>
      <trkpt lat="47.795150" lon="12.203857">
        <ele>501.512328</ele>
        <time>2022-10-22T12:58:54.747Z</time>
      </trkpt>
      <trkpt lat="47.794505" lon="12.201655">
        <ele>498.868400</ele>
        <time>2022-10-22T12:59:24.915Z</time>
      </trkpt>
      <trkpt lat="47.793955" lon="12.200150">
        <ele>496.631107</ele>
        <time>2022-10-22T12:59:45.442Z</time>
      </trkpt>
      <trkpt lat="47.792950" lon="12.197432">
        <ele>493.366986</ele>
        <time>2022-10-22T13:00:24.879Z</time>
      </trkpt>
      <trkpt lat="47.792735" lon="12.196623">
        <ele>492.637758</ele>
        <time>2022-10-22T13:00:36.859Z</time>
      </trkpt>
      <trkpt lat="47.792666" lon="12.195685">
        <ele>492.100890</ele>
        <time>2022-10-22T13:00:50.021Z</time>
      </trkpt>
      <trkpt lat="47.792720" lon="12.195040">
        <ele>491.731077</ele>
        <time>2022-10-22T13:00:59.146Z</time>
      </trkpt>
      <trkpt lat="47.793265" lon="12.192769">
        <ele>489.251398</ele>
        <time>2022-10-22T13:01:30.679Z</time>
      </trkpt>
      <trkpt lat="47.793646" lon="12.191928">
        <ele>487.885947</ele>
        <time>2022-10-22T13:01:42.755Z</time>
      </trkpt>
      <trkpt lat="47.794336" lon="12.190720">
        <ele>484.513082</ele>
        <time>2022-10-22T13:02:00.673Z</time>
      </trkpt>
      <trkpt lat="47.794536" lon="12.190149">
        <ele>483.054573</ele>
        <time>2022-10-22T13:02:07.927Z</time>
      </trkpt>
      <trkpt lat="47.794718" lon="12.189159">
        <ele>480.960824</ele>
        <time>2022-10-22T13:02:19.635Z</time>
      </trkpt>
      <trkpt lat="47.794790" lon="12.187228">
        <ele>477.891215</ele>
        <time>2022-10-22T13:02:42.833Z</time>
      </trkpt>
      <trkpt lat="47.794656" lon="12.185802">
        <ele>476.357920</ele>
        <time>2022-10-22T13:03:01.399Z</time>
      </trkpt>
      <trkpt lat="47.794660" lon="12.184727">
        <ele>475.431111</ele>
        <time>2022-10-22T13:03:15.516Z</time>
      </trkpt>
      <trkpt lat="47.794809" lon="12.184015">
        <ele>474.818346</ele>
        <time>2022-10-22T13:03:25.423Z</time>
      </trkpt>
      <trkpt lat="47.795350" lon="12.182538">
        <ele>473.648957</ele>
        <time>2022-10-22T13:03:47.964Z</time>
      </trkpt>
      <trkpt lat="47.795814" lon="12.181453">
        <ele>472.791733</ele>
        <time>2022-10-22T13:04:04.992Z</time>
      </trkpt>
      <trkpt lat="47.796335" lon="12.180033">
        <ele>471.793382</ele>
        <time>2022-10-22T13:04:26.697Z</time>
      </trkpt>
      <trkpt lat="47.796451" lon="12.179509">
        <ele>471.452956</ele>
        <time>2022-10-22T13:04:34.194Z</time>
      </trkpt>
      <trkpt lat="47.796512" lon="12.179086">
        <ele>471.291956</ele>
        <time>2022-10-22T13:04:40.100Z</time>
      </trkpt>
      <trkpt lat="47.796515" lon="12.177505">
        <ele>470.738808</ele>
        <time>2022-10-22T13:05:02.214Z</time>
      </trkpt>
      <trkpt lat="47.796581" lon="12.176931">
        <ele>470.535062</ele>
        <time>2022-10-22T13:05:10.581Z</time>
      </trkpt>
      <trkpt lat="47.797102" lon="12.175414">
        <ele>470.223035</ele>
        <time>2022-10-22T13:05:35.164Z</time>
      </trkpt>
      <trkpt lat="47.797557" lon="12.174451">
        <ele>470.003878</ele>
        <time>2022-10-22T13:05:52.395Z</time>
      </trkpt>
      <trkpt lat="47.798084" lon="12.173676">
        <ele>469.583750</ele>
        <time>2022-10-22T13:06:08.408Z</time>
      </trkpt>
      <trkpt lat="47.798746" lon="12.172845">
        <ele>469.092641</ele>
        <time>2022-10-22T13:06:26.415Z</time>
      </trkpt>
      <trkpt lat="47.799844" lon="12.171630">
        <ele>466.853018</ele>
        <time>2022-10-22T13:06:52.295Z</time>
      </trkpt>
      <trkpt lat="47.799901" lon="12.171566">
        <ele>466.727841</ele>
        <time>2022-10-22T13:06:53.593Z</time>
      </trkpt>
      <trkpt lat="47.800700" lon="12.170527">
        <ele>464.810303</ele>
        <time>2022-10-22T13:07:12.548Z</time>
      </trkpt>
      <trkpt lat="47.800981" lon="12.169827">
        <ele>463.794444</ele>
        <time>2022-10-22T13:07:22.550Z</time>
      </trkpt>
      <trkpt lat="47.801196" lon="12.168950">
        <ele>462.631462</ele>
        <time>2022-10-22T13:07:34.385Z</time>
      </trkpt>
      <trkpt lat="47.801254" lon="12.168551">
        <ele>462.367747</ele>
        <time>2022-10-22T13:07:39.768Z</time>
      </trkpt>
      <trkpt lat="47.801002" lon="12.168206">
        <ele>462.117230</ele>
        <time>2022-10-22T13:07:46.805Z</time>
      </trkpt>
      <trkpt lat="47.800918" lon="12.168009">
        <ele>462.002539</ele>
        <time>2022-10-22T13:07:50.385Z</time>
      </trkpt>
      <trkpt lat="47.800821" lon="12.167470">
        <ele>461.728266</ele>
        <time>2022-10-22T13:07:58.687Z</time>
      </trkpt>
      <trkpt lat="47.800620" lon="12.166422">
        <ele>461.164013</ele>
        <time>2022-10-22T13:08:13.594Z</time>
      </trkpt>
      <trkpt lat="47.800545" lon="12.166209">
        <ele>460.864269</ele>
        <time>2022-10-22T13:08:16.826Z</time>
      </trkpt>
      <trkpt lat="47.800521" lon="12.166151">
        <ele>460.779362</ele>
        <time>2022-10-22T13:08:17.696Z</time>
      </trkpt>
      <trkpt lat="47.800453" lon="12.166222">
        <ele>460.625247</ele>
        <time>2022-10-22T13:08:19.349Z</time>
      </trkpt>
      <trkpt lat="47.800314" lon="12.166391">
        <ele>460.292244</ele>
        <time>2022-10-22T13:08:22.730Z</time>
      </trkpt>
      <trkpt lat="47.800274" lon="12.166434">
        <ele>460.200695</ele>
        <time>2022-10-22T13:08:23.666Z</time>
      </trkpt>
      <trkpt lat="47.800225" lon="12.166327">
        <ele>460.039286</ele>
        <time>2022-10-22T13:08:25.318Z</time>
      </trkpt>
      <trkpt lat="47.800094" lon="12.165805">
        <ele>459.344744</ele>
        <time>2022-10-22T13:08:32.254Z</time>
      </trkpt>
      <trkpt lat="47.800021" lon="12.165113">
        <ele>458.471665</ele>
        <time>2022-10-22T13:08:40.748Z</time>
      </trkpt>
      <trkpt lat="47.800027" lon="12.163187">
        <ele>455.912454</ele>
        <time>2022-10-22T13:09:03.540Z</time>
      </trkpt>
      <trkpt lat="47.800035" lon="12.162293">
        <ele>454.700017</ele>
        <time>2022-10-22T13:09:14.880Z</time>
      </trkpt>
      <trkpt lat="47.800037" lon="12.161841">
        <ele>454.192051</ele>
        <time>2022-10-22T13:09:20.814Z</time>
      </trkpt>
      <trkpt lat="47.800037" lon="12.161690">
        <ele>454.125503</ele>
        <time>2022-10-22T13:09:22.815Z</time>
      </trkpt>
      <trkpt lat="47.800041" lon="12.161531">
        <ele>454.055381</ele>
        <time>2022-10-22T13:09:24.941Z</time>
      </trkpt>
      <trkpt lat="47.800058" lon="12.156338">
        <ele>452.152268</ele>
        <time>2022-10-22T13:10:38.072Z</time>
      </trkpt>
      <trkpt lat="47.800123" lon="12.156044">
        <ele>452.067670</ele>
        <time>2022-10-22T13:10:43.092Z</time>
      </trkpt>
      <trkpt lat="47.800058" lon="12.156338">
        <ele>451.983073</ele>
        <time>2022-10-22T13:10:47.951Z</time>
      </trkpt>
      <trkpt lat="47.799906" lon="12.156013">
        <ele>451.874833</ele>
        <time>2022-10-22T13:10:53.629Z</time>
      </trkpt>
      <trkpt lat="47.798432" lon="12.152940">
        <ele>450.777422</ele>
        <time>2022-10-22T13:11:47.072Z</time>
      </trkpt>
      <trkpt lat="47.798170" lon="12.152235">
        <ele>450.564501</ele>
        <time>2022-10-22T13:11:58.935Z</time>
      </trkpt>
      <trkpt lat="47.798070" lon="12.151816">
        <ele>450.456719</ele>
        <time>2022-10-22T13:12:05.513Z</time>
      </trkpt>
      <trkpt lat="47.798154" lon="12.151590">
        <ele>450.394112</ele>
        <time>2022-10-22T13:12:09.370Z</time>
      </trkpt>
      <trkpt lat="47.798464" lon="12.151258">
        <ele>450.256312</ele>
        <time>2022-10-22T13:12:17.832Z</time>
      </trkpt>
      <trkpt lat="47.798563" lon="12.150948">
        <ele>450.173111</ele>
        <time>2022-10-22T13:12:22.925Z</time>
      </trkpt>
      <trkpt lat="47.798654" lon="12.149539">
        <ele>449.919463</ele>
        <time>2022-10-22T13:12:44.338Z</time>
      </trkpt>
      <trkpt lat="47.798779" lon="12.149449">
        <ele>449.890944</ele>
        <time>2022-10-22T13:12:47.488Z</time>
      </trkpt>
      <trkpt lat="47.799159" lon="12.149346">
        <ele>449.811613</ele>
        <time>2022-10-22T13:12:56.259Z</time>
      </trkpt>
      <trkpt lat="47.799275" lon="12.149257">
        <ele>449.784809</ele>
        <time>2022-10-22T13:12:59.222Z</time>
      </trkpt>
      <trkpt lat="47.799454" lon="12.148897">
        <ele>449.723015</ele>
        <time>2022-10-22T13:13:06.040Z</time>
      </trkpt>
      <trkpt lat="47.799625" lon="12.148570">
        <ele>449.665395</ele>
        <time>2022-10-22T13:13:12.313Z</time>
      </trkpt>
      <trkpt lat="47.799957" lon="12.148122">
        <ele>449.556220</ele>
        <time>2022-10-22T13:13:22.425Z</time>
      </trkpt>
      <trkpt lat="47.800036" lon="12.147911">
        <ele>449.516685</ele>
        <time>2022-10-22T13:13:26.081Z</time>
      </trkpt>
      <trkpt lat="47.799913" lon="12.146562">
        <ele>449.293879</ele>
        <time>2022-10-22T13:13:46.637Z</time>
      </trkpt>
      <trkpt lat="47.799936" lon="12.146218">
        <ele>449.237301</ele>
        <time>2022-10-22T13:13:51.822Z</time>
      </trkpt>
      <trkpt lat="47.800081" lon="12.145657">
        <ele>449.138316</ele>
        <time>2022-10-22T13:14:00.806Z</time>
      </trkpt>
      <trkpt lat="47.800105" lon="12.145575">
        <ele>449.123579</ele>
        <time>2022-10-22T13:14:02.144Z</time>
      </trkpt>
      <trkpt lat="47.800415" lon="12.142362">
        <ele>449.011171</ele>
        <time>2022-10-22T13:14:51.235Z</time>
      </trkpt>
      <trkpt lat="47.800709" lon="12.139595">
        <ele>449.581717</ele>
        <time>2022-10-22T13:15:41.226Z</time>
      </trkpt>
      <trkpt lat="47.800859" lon="12.139188">
        <ele>449.686706</ele>
        <time>2022-10-22T13:15:48.575Z</time>
      </trkpt>
      <trkpt lat="47.800910" lon="12.139046">
        <ele>449.723122</ele>
        <time>2022-10-22T13:15:50.969Z</time>
      </trkpt>
      <trkpt lat="47.800969" lon="12.138844">
        <ele>449.772936</ele>
        <time>2022-10-22T13:15:54.353Z</time>
      </trkpt>
      <trkpt lat="47.801502" lon="12.136629">
        <ele>449.595217</ele>
        <time>2022-10-22T13:16:28.548Z</time>
      </trkpt>
      <trkpt lat="47.801903" lon="12.135033">
        <ele>449.521462</ele>
        <time>2022-10-22T13:16:53.129Z</time>
      </trkpt>
      <trkpt lat="47.802160" lon="12.134426">
        <ele>449.565110</ele>
        <time>2022-10-22T13:17:04.448Z</time>
      </trkpt>
      <trkpt lat="47.802320" lon="12.134161">
        <ele>449.586785</ele>
        <time>2022-10-22T13:17:10.180Z</time>
      </trkpt>
      <trkpt lat="47.802974" lon="12.133586">
        <ele>449.776949</ele>
        <time>2022-10-22T13:17:28.021Z</time>
      </trkpt>
      <trkpt lat="47.803242" lon="12.133436">
        <ele>449.928543</ele>
        <time>2022-10-22T13:17:34.709Z</time>
      </trkpt>
      <trkpt lat="47.803814" lon="12.133222">
        <ele>450.240815</ele>
        <time>2022-10-22T13:17:48.787Z</time>
      </trkpt>
      <trkpt lat="47.804304" lon="12.133320">
        <ele>450.502585</ele>
        <time>2022-10-22T13:18:01.498Z</time>
      </trkpt>
      <trkpt lat="47.804441" lon="12.133092">
        <ele>450.647810</ele>
        <time>2022-10-22T13:18:07.134Z</time>
      </trkpt>
      <trkpt lat="47.804592" lon="12.132333">
        <ele>451.288813</ele>
        <time>2022-10-22T13:18:22.347Z</time>
      </trkpt>
      <trkpt lat="47.804578" lon="12.131841">
        <ele>451.687573</ele>
        <time>2022-10-22T13:18:31.943Z</time>
      </trkpt>
      <trkpt lat="47.804635" lon="12.131489">
        <ele>451.980775</ele>
        <time>2022-10-22T13:18:38.894Z</time>
      </trkpt>
      <trkpt lat="47.804917" lon="12.130957">
        <ele>452.529564</ele>
        <time>2022-10-22T13:18:52.169Z</time>
      </trkpt>
      <trkpt lat="47.805153" lon="12.130668">
        <ele>452.836499</ele>
        <time>2022-10-22T13:19:00.816Z</time>
      </trkpt>
      <trkpt lat="47.806431" lon="12.129750">
        <ele>453.830222</ele>
        <time>2022-10-22T13:19:38.039Z</time>
      </trkpt>
      <trkpt lat="47.806497" lon="12.129579">
        <ele>453.922988</ele>
        <time>2022-10-22T13:19:40.990Z</time>
      </trkpt>
      <trkpt lat="47.806536" lon="12.128906">
        <ele>453.962702</ele>
        <time>2022-10-22T13:19:51.106Z</time>
      </trkpt>
      <trkpt lat="47.806569" lon="12.128806">
        <ele>453.951701</ele>
        <time>2022-10-22T13:19:52.746Z</time>
      </trkpt>
      <trkpt lat="47.806204" lon="12.128529">
        <ele>453.891480</ele>
        <time>2022-10-22T13:20:01.762Z</time>
      </trkpt>
      <trkpt lat="47.806658" lon="12.128614">
        <ele>453.824217</ele>
        <time>2022-10-22T13:20:18.401Z</time>
      </trkpt>
      <trkpt lat="47.806738" lon="12.128646">
        <ele>453.812041</ele>
        <time>2022-10-22T13:20:28.700Z</time>
      </trkpt>
      <trkpt lat="47.807067" lon="12.125032">
        <ele>453.052058</ele>
        <time>2022-10-22T13:21:20.592Z</time>
      </trkpt>
      <trkpt lat="47.807000" lon="12.125022">
        <ele>453.034710</ele>
        <time>2022-10-22T13:21:28.919Z</time>
      </trkpt>
      <trkpt lat="47.806841" lon="12.125015">
        <ele>452.993728</ele>
        <time>2022-10-22T13:21:34.651Z</time>
      </trkpt>
      <trkpt lat="47.807046" lon="12.124932">
        <ele>452.938995</ele>
        <time>2022-10-22T13:21:39.711Z</time>
      </trkpt>
      <trkpt lat="47.806878" lon="12.124867">
        <ele>452.894274</ele>
        <time>2022-10-22T13:21:43.466Z</time>
      </trkpt>
      <trkpt lat="47.806533" lon="12.124821">
        <ele>452.805034</ele>
        <time>2022-10-22T13:21:51.911Z</time>
      </trkpt>
      <trkpt lat="47.806878" lon="12.124867">
        <ele>452.715794</ele>
        <time>2022-10-22T13:22:00.212Z</time>
      </trkpt>
      <trkpt lat="47.807046" lon="12.124932">
        <ele>452.671074</ele>
        <time>2022-10-22T13:22:03.995Z</time>
      </trkpt>
      <trkpt lat="47.807526" lon="12.125033">
        <ele>452.372315</ele>
        <time>2022-10-22T13:22:14.163Z</time>
      </trkpt>
      <trkpt lat="47.807565" lon="12.125046">
        <ele>452.343245</ele>
        <time>2022-10-22T13:22:14.988Z</time>
      </trkpt>
      <trkpt lat="47.807575" lon="12.124854">
        <ele>452.249165</ele>
        <time>2022-10-22T13:22:17.654Z</time>
      </trkpt>
      <trkpt lat="47.807699" lon="12.123284">
        <ele>451.476885</ele>
        <time>2022-10-22T13:22:41.646Z</time>
      </trkpt>
      <trkpt lat="47.807719" lon="12.123133">
        <ele>451.401696</ele>
        <time>2022-10-22T13:22:43.661Z</time>
      </trkpt>
      <trkpt lat="47.808006" lon="12.123299">
        <ele>451.347802</ele>
        <time>2022-10-22T13:22:49.813Z</time>
      </trkpt>
      <trkpt lat="47.808352" lon="12.123307">
        <ele>451.371412</ele>
        <time>2022-10-22T13:23:01.924Z</time>
      </trkpt>
      <trkpt lat="47.808351" lon="12.123258">
        <ele>451.373658</ele>
        <time>2022-10-22T13:23:03.035Z</time>
      </trkpt>
      <trkpt lat="47.808347" lon="12.123197">
        <ele>451.376466</ele>
        <time>2022-10-22T13:23:03.882Z</time>
      </trkpt>
      <trkpt lat="47.808369" lon="12.122932">
        <ele>451.388702</ele>
        <time>2022-10-22T13:23:10.317Z</time>
      </trkpt>
      <trkpt lat="47.808500" lon="12.122895">
        <ele>451.397799</ele>
        <time>2022-10-22T13:23:13.308Z</time>
      </trkpt>
      <trkpt lat="47.808684" lon="12.122809">
        <ele>451.410957</ele>
        <time>2022-10-22T13:23:17.740Z</time>
      </trkpt>
      <trkpt lat="47.808745" lon="12.122733">
        <ele>451.416384</ele>
        <time>2022-10-22T13:23:19.830Z</time>
      </trkpt>
      <trkpt lat="47.808767" lon="12.122322">
        <ele>451.435276</ele>
        <time>2022-10-22T13:23:27.110Z</time>
      </trkpt>
      <trkpt lat="47.808723" lon="12.121535">
        <ele>451.789753</ele>
        <time>2022-10-22T13:23:41.994Z</time>
      </trkpt>
      <trkpt lat="47.808755" lon="12.121293">
        <ele>452.032722</ele>
        <time>2022-10-22T13:23:46.654Z</time>
      </trkpt>
      <trkpt lat="47.809092" lon="12.120836">
        <ele>452.701306</ele>
        <time>2022-10-22T13:24:00.527Z</time>
      </trkpt>
      <trkpt lat="47.809087" lon="12.120358">
        <ele>453.172235</ele>
        <time>2022-10-22T13:24:10.608Z</time>
      </trkpt>
      <trkpt lat="47.809197" lon="12.120307">
        <ele>453.341221</ele>
        <time>2022-10-22T13:24:14.281Z</time>
      </trkpt>
      <trkpt lat="47.809609" lon="12.120276">
        <ele>453.946303</ele>
        <time>2022-10-22T13:24:26.761Z</time>
      </trkpt>
      <trkpt lat="47.810158" lon="12.120079">
        <ele>454.401447</ele>
        <time>2022-10-22T13:24:43.219Z</time>
      </trkpt>
      <trkpt lat="47.811578" lon="12.119018">
        <ele>455.315860</ele>
        <time>2022-10-22T13:25:21.514Z</time>
      </trkpt>
      <trkpt lat="47.811949" lon="12.118873">
        <ele>455.361590</ele>
        <time>2022-10-22T13:25:30.252Z</time>
      </trkpt>
      <trkpt lat="47.812159" lon="12.118908">
        <ele>455.386783</ele>
        <time>2022-10-22T13:25:34.969Z</time>
      </trkpt>
      <trkpt lat="47.812369" lon="12.119059">
        <ele>455.414586</ele>
        <time>2022-10-22T13:25:40.307Z</time>
      </trkpt>
      <trkpt lat="47.812705" lon="12.119074">
        <ele>455.454663</ele>
        <time>2022-10-22T13:25:47.924Z</time>
      </trkpt>
      <trkpt lat="47.812753" lon="12.119149">
        <ele>455.462958</ele>
        <time>2022-10-22T13:25:49.476Z</time>
      </trkpt>
      <trkpt lat="47.812807" lon="12.119233">
        <ele>455.472268</ele>
        <time>2022-10-22T13:25:51.192Z</time>
      </trkpt>
      <trkpt lat="47.812041" lon="12.119257">
        <ele>455.514030</ele>
        <time>2022-10-22T13:26:08.194Z</time>
      </trkpt>
      <trkpt lat="47.811784" lon="12.119013">
        <ele>455.522039</ele>
        <time>2022-10-22T13:26:14.934Z</time>
      </trkpt>
      <trkpt lat="47.811622" lon="12.118480">
        <ele>455.532364</ele>
        <time>2022-10-22T13:26:23.603Z</time>
      </trkpt>
      <trkpt lat="47.811616" lon="12.118374">
        <ele>455.534241</ele>
        <time>2022-10-22T13:26:25.204Z</time>
      </trkpt>
      <trkpt lat="47.811470" lon="12.118298">
        <ele>455.538305</ele>
        <time>2022-10-22T13:26:28.636Z</time>
      </trkpt>
      <trkpt lat="47.811487" lon="12.118234">
        <ele>455.539520</ele>
        <time>2022-10-22T13:26:29.715Z</time>
      </trkpt>
      <trkpt lat="47.811271" lon="12.118210">
        <ele>455.545211</ele>
        <time>2022-10-22T13:26:34.508Z</time>
      </trkpt>
      <trkpt lat="47.810598" lon="12.117956">
        <ele>455.775518</ele>
        <time>2022-10-22T13:26:50.715Z</time>
      </trkpt>
      <trkpt lat="47.809928" lon="12.117512">
        <ele>456.047370</ele>
        <time>2022-10-22T13:27:08.735Z</time>
      </trkpt>
      <trkpt lat="47.809538" lon="12.117220">
        <ele>456.209189</ele>
        <time>2022-10-22T13:27:19.542Z</time>
      </trkpt>
      <trkpt lat="47.809628" lon="12.117052">
        <ele>456.254653</ele>
        <time>2022-10-22T13:27:23.267Z</time>
      </trkpt>
      <trkpt lat="47.809917" lon="12.116140">
        <ele>456.464246</ele>
        <time>2022-10-22T13:27:39.818Z</time>
      </trkpt>
      <trkpt lat="47.810461" lon="12.114720">
        <ele>456.748144</ele>
        <time>2022-10-22T13:28:05.640Z</time>
      </trkpt>
      <trkpt lat="47.811659" lon="12.111743">
        <ele>456.298601</ele>
        <time>2022-10-22T13:28:57.830Z</time>
      </trkpt>
      <trkpt lat="47.811120" lon="12.111184">
        <ele>456.199684</ele>
        <time>2022-10-22T13:29:12.687Z</time>
      </trkpt>
      <trkpt lat="47.811113" lon="12.110957">
        <ele>456.176702</ele>
        <time>2022-10-22T13:29:16.176Z</time>
      </trkpt>
      <trkpt lat="47.811474" lon="12.110333">
        <ele>456.178211</ele>
        <time>2022-10-22T13:29:28.937Z</time>
      </trkpt>
      <trkpt lat="47.811872" lon="12.109347">
        <ele>456.383303</ele>
        <time>2022-10-22T13:29:47.473Z</time>
      </trkpt>
      <trkpt lat="47.812331" lon="12.108183">
        <ele>456.653568</ele>
        <time>2022-10-22T13:30:10.396Z</time>
      </trkpt>
      <trkpt lat="47.814489" lon="12.103149">
        <ele>459.024418</ele>
        <time>2022-10-22T13:31:56.530Z</time>
      </trkpt>
      <trkpt lat="47.812180" lon="12.100324">
        <ele>459.972355</ele>
        <time>2022-10-22T13:33:08.437Z</time>
      </trkpt>
      <trkpt lat="47.811612" lon="12.097096">
        <ele>461.550572</ele>
        <time>2022-10-22T13:34:09.678Z</time>
      </trkpt>
      <trkpt lat="47.812804" lon="12.096482">
        <ele>462.232111</ele>
        <time>2022-10-22T13:34:40.111Z</time>
      </trkpt>
      <trkpt lat="47.813662" lon="12.096298">
        <ele>463.257849</ele>
        <time>2022-10-22T13:35:02.948Z</time>
      </trkpt>
      <trkpt lat="47.813893" lon="12.095712">
        <ele>463.889409</ele>
        <time>2022-10-22T13:35:16.627Z</time>
      </trkpt>
      <trkpt lat="47.814828" lon="12.093337">
        <ele>466.460226</ele>
        <time>2022-10-22T13:36:15.314Z</time>
      </trkpt>
      <trkpt lat="47.815886" lon="12.090642">
        <ele>467.770151</ele>
        <time>2022-10-22T13:37:06.420Z</time>
      </trkpt>
      <trkpt lat="47.815101" lon="12.089914">
        <ele>467.724334</ele>
        <time>2022-10-22T13:37:26.408Z</time>
      </trkpt>
      <trkpt lat="47.816292" lon="12.087613">
        <ele>467.286952</ele>
        <time>2022-10-22T13:38:08.351Z</time>
      </trkpt>
      <trkpt lat="47.816376" lon="12.087440">
        <ele>467.259234</ele>
        <time>2022-10-22T13:38:11.455Z</time>
      </trkpt>
      <trkpt lat="47.816584" lon="12.087016">
        <ele>467.191061</ele>
        <time>2022-10-22T13:38:19.086Z</time>
      </trkpt>
      <trkpt lat="47.816822" lon="12.086528">
        <ele>467.112756</ele>
        <time>2022-10-22T13:38:27.930Z</time>
      </trkpt>
      <trkpt lat="47.816967" lon="12.086231">
        <ele>467.078629</ele>
        <time>2022-10-22T13:38:33.355Z</time>
      </trkpt>
      <trkpt lat="47.817362" lon="12.085424">
        <ele>467.047739</ele>
        <time>2022-10-22T13:38:48.225Z</time>
      </trkpt>
      <trkpt lat="47.818630" lon="12.082851">
        <ele>466.987568</ele>
        <time>2022-10-22T13:39:35.777Z</time>
      </trkpt>
      <trkpt lat="47.818319" lon="12.082693">
        <ele>466.983874</ele>
        <time>2022-10-22T13:39:43.102Z</time>
      </trkpt>
      <trkpt lat="47.814174" lon="12.080577">
        <ele>466.713433</ele>
        <time>2022-10-22T13:41:19.957Z</time>
      </trkpt>
      <trkpt lat="47.814945" lon="12.078514">
        <ele>466.444220</ele>
        <time>2022-10-22T13:41:53.857Z</time>
      </trkpt>
      <trkpt lat="47.815573" lon="12.076236">
        <ele>466.632486</ele>
        <time>2022-10-22T13:42:31.505Z</time>
      </trkpt>
      <trkpt lat="47.814997" lon="12.076183">
        <ele>466.915064</ele>
        <time>2022-10-22T13:42:46.349Z</time>
      </trkpt>
      <trkpt lat="47.814143" lon="12.076272">
        <ele>467.334249</ele>
        <time>2022-10-22T13:43:07.876Z</time>
      </trkpt>
      <trkpt lat="47.814046" lon="12.076289">
        <ele>467.382073</ele>
        <time>2022-10-22T13:43:10.345Z</time>
      </trkpt>
      <trkpt lat="47.813688" lon="12.076329">
        <ele>467.525458</ele>
        <time>2022-10-22T13:43:18.963Z</time>
      </trkpt>
      <trkpt lat="47.813241" lon="12.076234">
        <ele>467.651850</ele>
        <time>2022-10-22T13:43:29.437Z</time>
      </trkpt>
      <trkpt lat="47.812689" lon="12.076063">
        <ele>467.809675</ele>
        <time>2022-10-22T13:43:41.890Z</time>
      </trkpt>
      <trkpt lat="47.812533" lon="12.075952">
        <ele>467.858072</ele>
        <time>2022-10-22T13:43:45.670Z</time>
      </trkpt>
      <trkpt lat="47.812745" lon="12.074152">
        <ele>469.283591</ele>
        <time>2022-10-22T13:44:17.564Z</time>
      </trkpt>
      <trkpt lat="47.812685" lon="12.073990">
        <ele>469.492643</ele>
        <time>2022-10-22T13:44:21.463Z</time>
      </trkpt>
      <trkpt lat="47.812568" lon="12.073892">
        <ele>469.718520</ele>
        <time>2022-10-22T13:44:25.516Z</time>
      </trkpt>
      <trkpt lat="47.812509" lon="12.073868">
        <ele>469.821433</ele>
        <time>2022-10-22T13:44:27.309Z</time>
      </trkpt>
      <trkpt lat="47.811557" lon="12.073757">
        <ele>471.647182</ele>
        <time>2022-10-22T13:45:00.587Z</time>
      </trkpt>
      <trkpt lat="47.811059" lon="12.073881">
        <ele>472.943921</ele>
        <time>2022-10-22T13:45:20.782Z</time>
      </trkpt>
      <trkpt lat="47.810833" lon="12.073833">
        <ele>473.530216</ele>
        <time>2022-10-22T13:45:29.964Z</time>
      </trkpt>
      <trkpt lat="47.810636" lon="12.073566">
        <ele>474.214359</ele>
        <time>2022-10-22T13:45:39.803Z</time>
      </trkpt>
      <trkpt lat="47.810220" lon="12.072335">
        <ele>475.712858</ele>
        <time>2022-10-22T13:46:07.907Z</time>
      </trkpt>
      <trkpt lat="47.809498" lon="12.071647">
        <ele>475.899505</ele>
        <time>2022-10-22T13:46:27.838Z</time>
      </trkpt>
      <trkpt lat="47.808710" lon="12.070872">
        <ele>475.784590</ele>
        <time>2022-10-22T13:46:46.972Z</time>
      </trkpt>
      <trkpt lat="47.808572" lon="12.070631">
        <ele>475.649873</ele>
        <time>2022-10-22T13:46:51.091Z</time>
      </trkpt>
      <trkpt lat="47.808391" lon="12.070563">
        <ele>475.531642</ele>
        <time>2022-10-22T13:46:54.928Z</time>
      </trkpt>
      <trkpt lat="47.808212" lon="12.070615">
        <ele>475.416133</ele>
        <time>2022-10-22T13:46:58.495Z</time>
      </trkpt>
      <trkpt lat="47.807441" lon="12.071276">
        <ele>474.891261</ele>
        <time>2022-10-22T13:47:17.142Z</time>
      </trkpt>
      <trkpt lat="47.807426" lon="12.071281">
        <ele>474.893539</ele>
        <time>2022-10-22T13:47:17.633Z</time>
      </trkpt>
      <trkpt lat="47.807441" lon="12.071276">
        <ele>474.895816</ele>
        <time>2022-10-22T13:47:17.902Z</time>
      </trkpt>
      <trkpt lat="47.808212" lon="12.070615">
        <ele>475.027643</ele>
        <time>2022-10-22T13:47:38.312Z</time>
      </trkpt>
      <trkpt lat="47.808391" lon="12.070563">
        <ele>475.054667</ele>
        <time>2022-10-22T13:47:42.948Z</time>
      </trkpt>
      <trkpt lat="47.808572" lon="12.070631">
        <ele>475.082327</ele>
        <time>2022-10-22T13:47:47.098Z</time>
      </trkpt>
      <trkpt lat="47.808082" lon="12.068859">
        <ele>475.380935</ele>
        <time>2022-10-22T13:48:36.831Z</time>
      </trkpt>
      <trkpt lat="47.807968" lon="12.068167">
        <ele>475.514261</ele>
        <time>2022-10-22T13:48:55.480Z</time>
      </trkpt>
      <trkpt lat="47.808123" lon="12.059100">
        <ele>476.586144</ele>
        <time>2022-10-22T13:52:45.530Z</time>
      </trkpt>
      <trkpt lat="47.808390" lon="12.058590">
        <ele>476.880727</ele>
        <time>2022-10-22T13:53:03.032Z</time>
      </trkpt>
      <trkpt lat="47.808574" lon="12.057992">
        <ele>477.180379</ele>
        <time>2022-10-22T13:53:20.874Z</time>
      </trkpt>
      <trkpt lat="47.808565" lon="12.057729">
        <ele>477.300346</ele>
        <time>2022-10-22T13:53:28.157Z</time>
      </trkpt>
      <trkpt lat="47.808537" lon="12.057638">
        <ele>477.345945</ele>
        <time>2022-10-22T13:53:30.810Z</time>
      </trkpt>
      <trkpt lat="47.808373" lon="12.057290">
        <ele>477.539614</ele>
        <time>2022-10-22T13:53:42.715Z</time>
      </trkpt>
      <trkpt lat="47.808231" lon="12.056742">
        <ele>477.774933</ele>
        <time>2022-10-22T13:53:59.768Z</time>
      </trkpt>
      <trkpt lat="47.808443" lon="12.056000">
        <ele>478.056727</ele>
        <time>2022-10-22T13:54:22.379Z</time>
      </trkpt>
      <trkpt lat="47.808543" lon="12.055817">
        <ele>478.139174</ele>
        <time>2022-10-22T13:54:29.086Z</time>
      </trkpt>
      <trkpt lat="47.808805" lon="12.055672">
        <ele>478.284616</ele>
        <time>2022-10-22T13:54:40.162Z</time>
      </trkpt>
      <trkpt lat="47.808890" lon="12.055489">
        <ele>478.362373</ele>
        <time>2022-10-22T13:54:46.184Z</time>
      </trkpt>
      <trkpt lat="47.808998" lon="12.055282">
        <ele>478.453975</ele>
        <time>2022-10-22T13:54:52.749Z</time>
      </trkpt>
      <trkpt lat="47.809042" lon="12.054934">
        <ele>478.577725</ele>
        <time>2022-10-22T13:55:01.493Z</time>
      </trkpt>
      <trkpt lat="47.809168" lon="12.054718">
        <ele>478.334026</ele>
        <time>2022-10-22T13:55:08.441Z</time>
      </trkpt>
      <trkpt lat="47.809172" lon="12.054646">
        <ele>478.240647</ele>
        <time>2022-10-22T13:55:10.254Z</time>
      </trkpt>
      <trkpt lat="47.809201" lon="12.054148">
        <ele>477.594557</ele>
        <time>2022-10-22T13:55:21.894Z</time>
      </trkpt>
      <trkpt lat="47.809256" lon="12.053970">
        <ele>477.341307</ele>
        <time>2022-10-22T13:55:26.288Z</time>
      </trkpt>
      <trkpt lat="47.809412" lon="12.053735">
        <ele>476.914230</ele>
        <time>2022-10-22T13:55:33.676Z</time>
      </trkpt>
      <trkpt lat="47.809803" lon="12.053544">
        <ele>476.122278</ele>
        <time>2022-10-22T13:55:46.801Z</time>
      </trkpt>
      <trkpt lat="47.809971" lon="12.053478">
        <ele>475.787892</ele>
        <time>2022-10-22T13:55:52.075Z</time>
      </trkpt>
      <trkpt lat="47.810136" lon="12.053244">
        <ele>475.349361</ele>
        <time>2022-10-22T13:55:59.072Z</time>
      </trkpt>
      <trkpt lat="47.810887" lon="12.051529">
        <ele>471.379926</ele>
        <time>2022-10-22T13:56:40.918Z</time>
      </trkpt>
      <trkpt lat="47.810978" lon="12.051477">
        <ele>471.090604</ele>
        <time>2022-10-22T13:56:44.045Z</time>
      </trkpt>
      <trkpt lat="47.811095" lon="12.051508">
        <ele>470.737858</ele>
        <time>2022-10-22T13:56:47.697Z</time>
      </trkpt>
      <trkpt lat="47.812824" lon="12.052872">
        <ele>467.093921</ele>
        <time>2022-10-22T13:57:52.424Z</time>
      </trkpt>
      <trkpt lat="47.813136" lon="12.053121">
        <ele>466.639779</ele>
        <time>2022-10-22T13:58:04.520Z</time>
      </trkpt>
      <trkpt lat="47.814156" lon="12.050680">
        <ele>464.976901</ele>
        <time>2022-10-22T13:59:11.352Z</time>
      </trkpt>
      <trkpt lat="47.814303" lon="12.050424">
        <ele>464.925243</ele>
        <time>2022-10-22T13:59:19.489Z</time>
      </trkpt>
      <trkpt lat="47.814506" lon="12.050305">
        <ele>464.875418</ele>
        <time>2022-10-22T13:59:27.328Z</time>
      </trkpt>
      <trkpt lat="47.814641" lon="12.051143">
        <ele>464.743251</ele>
        <time>2022-10-22T13:59:40.062Z</time>
      </trkpt>
      <trkpt lat="47.814895" lon="12.052019">
        <ele>464.743750</ele>
        <time>2022-10-22T13:59:55.743Z</time>
      </trkpt>
      <trkpt lat="47.815296" lon="12.052845">
        <ele>465.103783</ele>
        <time>2022-10-22T14:00:12.079Z</time>
      </trkpt>
      <trkpt lat="47.815697" lon="12.053440">
        <ele>465.401551</ele>
        <time>2022-10-22T14:00:26.380Z</time>
      </trkpt>
      <trkpt lat="47.816291" lon="12.054244">
        <ele>465.667394</ele>
        <time>2022-10-22T14:00:47.670Z</time>
      </trkpt>
      <trkpt lat="47.817549" lon="12.055985">
        <ele>465.475759</ele>
        <time>2022-10-22T14:01:26.004Z</time>
      </trkpt>
      <trkpt lat="47.817667" lon="12.055622">
        <ele>465.158039</ele>
        <time>2022-10-22T14:01:33.202Z</time>
      </trkpt>
      <trkpt lat="47.818170" lon="12.055226">
        <ele>464.490528</ele>
        <time>2022-10-22T14:01:52.364Z</time>
      </trkpt>
      <trkpt lat="47.818438" lon="12.054731">
        <ele>463.989602</ele>
        <time>2022-10-22T14:02:06.323Z</time>
      </trkpt>
      <trkpt lat="47.818477" lon="12.054631">
        <ele>463.898500</ele>
        <time>2022-10-22T14:02:07.801Z</time>
      </trkpt>
      <trkpt lat="47.818788" lon="12.053807">
        <ele>463.414247</ele>
        <time>2022-10-22T14:02:28.545Z</time>
      </trkpt>
      <trkpt lat="47.818965" lon="12.053229">
        <ele>463.116340</ele>
        <time>2022-10-22T14:02:43.192Z</time>
      </trkpt>
      <trkpt lat="47.819128" lon="12.052421">
        <ele>462.720704</ele>
        <time>2022-10-22T14:03:03.803Z</time>
      </trkpt>
      <trkpt lat="47.819318" lon="12.051875">
        <ele>462.763530</ele>
        <time>2022-10-22T14:03:20.223Z</time>
      </trkpt>
      <trkpt lat="47.819785" lon="12.050549">
        <ele>464.199162</ele>
        <time>2022-10-22T14:04:04.441Z</time>
      </trkpt>
      <trkpt lat="47.820522" lon="12.048819">
        <ele>466.584025</ele>
        <time>2022-10-22T14:05:09.503Z</time>
      </trkpt>
      <trkpt lat="47.822138" lon="12.042937">
        <ele>475.057988</ele>
        <time>2022-10-22T14:08:30.326Z</time>
      </trkpt>
      <trkpt lat="47.822776" lon="12.043213">
        <ele>476.274537</ele>
        <time>2022-10-22T14:09:01.277Z</time>
      </trkpt>
      <trkpt lat="47.822863" lon="12.043257">
        <ele>476.425634</ele>
        <time>2022-10-22T14:09:05.497Z</time>
      </trkpt>
      <trkpt lat="47.822998" lon="12.043315">
        <ele>476.656696</ele>
        <time>2022-10-22T14:09:12.091Z</time>
      </trkpt>
      <trkpt lat="47.826062" lon="12.043409">
        <ele>480.835768</ele>
        <time>2022-10-22T14:11:29.385Z</time>
      </trkpt>
      <trkpt lat="47.827450" lon="12.043450">
        <ele>478.643640</ele>
        <time>2022-10-22T14:12:16.271Z</time>
      </trkpt>
      <trkpt lat="47.828451" lon="12.043387">
        <ele>475.986622</ele>
        <time>2022-10-22T14:12:46.524Z</time>
      </trkpt>
      <trkpt lat="47.828952" lon="12.043264">
        <ele>474.239867</ele>
        <time>2022-10-22T14:13:01.520Z</time>
      </trkpt>
      <trkpt lat="47.830332" lon="12.043029">
        <ele>470.518939</ele>
        <time>2022-10-22T14:13:44.560Z</time>
      </trkpt>
      <trkpt lat="47.830919" lon="12.042968">
        <ele>469.432682</ele>
        <time>2022-10-22T14:13:56.066Z</time>
      </trkpt>
      <trkpt lat="47.832513" lon="12.042773">
        <ele>467.582131</ele>
        <time>2022-10-22T14:14:27.772Z</time>
      </trkpt>
      <trkpt lat="47.834150" lon="12.042597">
        <ele>466.799061</ele>
        <time>2022-10-22T14:15:02.340Z</time>
      </trkpt>
      <trkpt lat="47.835340" lon="12.042444">
        <ele>466.602488</ele>
        <time>2022-10-22T14:15:28.948Z</time>
      </trkpt>
      <trkpt lat="47.835523" lon="12.042422">
        <ele>466.597472</ele>
        <time>2022-10-22T14:15:33.137Z</time>
      </trkpt>
      <trkpt lat="47.836003" lon="12.042365">
        <ele>466.584318</ele>
        <time>2022-10-22T14:15:44.274Z</time>
      </trkpt>
      <trkpt lat="47.836417" lon="12.042403">
        <ele>466.572986</ele>
        <time>2022-10-22T14:15:53.572Z</time>
      </trkpt>
      <trkpt lat="47.837800" lon="12.042841">
        <ele>466.334290</ele>
        <time>2022-10-22T14:16:23.918Z</time>
      </trkpt>
      <trkpt lat="47.838668" lon="12.043123">
        <ele>466.117936</ele>
        <time>2022-10-22T14:16:43.208Z</time>
      </trkpt>
      <trkpt lat="47.840894" lon="12.043814">
        <ele>465.314489</ele>
        <time>2022-10-22T14:17:31.260Z</time>
      </trkpt>
      <trkpt lat="47.841603" lon="12.044065">
        <ele>465.131914</ele>
        <time>2022-10-22T14:17:47.001Z</time>
      </trkpt>
      <trkpt lat="47.841775" lon="12.044057">
        <ele>465.088801</ele>
        <time>2022-10-22T14:17:50.710Z</time>
      </trkpt>
      <trkpt lat="47.841793" lon="12.044611">
        <ele>464.994435</ele>
        <time>2022-10-22T14:17:58.835Z</time>
      </trkpt>
      <trkpt lat="47.841839" lon="12.045727">
        <ele>464.773902</ele>
        <time>2022-10-22T14:18:15.149Z</time>
      </trkpt>
      <trkpt lat="47.842089" lon="12.047049">
        <ele>464.503001</ele>
        <time>2022-10-22T14:18:34.811Z</time>
      </trkpt>
      <trkpt lat="47.842135" lon="12.047024">
        <ele>464.488611</ele>
        <time>2022-10-22T14:18:35.874Z</time>
      </trkpt>
      <trkpt lat="47.842222" lon="12.046983">
        <ele>464.460730</ele>
        <time>2022-10-22T14:18:37.859Z</time>
      </trkpt>
      <trkpt lat="47.842444" lon="12.046896">
        <ele>464.387036</ele>
        <time>2022-10-22T14:18:42.911Z</time>
      </trkpt>
      <trkpt lat="47.842498" lon="12.046874">
        <ele>464.369063</ele>
        <time>2022-10-22T14:18:44.136Z</time>
      </trkpt>
      <trkpt lat="47.842739" lon="12.046950">
        <ele>464.289979</ele>
        <time>2022-10-22T14:18:49.572Z</time>
      </trkpt>
      <trkpt lat="47.842841" lon="12.047115">
        <ele>464.241644</ele>
        <time>2022-10-22T14:18:52.857Z</time>
      </trkpt>
      <trkpt lat="47.843166" lon="12.048114">
        <ele>464.002437</ele>
        <time>2022-10-22T14:19:09.381Z</time>
      </trkpt>
      <trkpt lat="47.843505" lon="12.049124">
        <ele>463.890107</ele>
        <time>2022-10-22T14:19:26.549Z</time>
      </trkpt>
      <trkpt lat="47.843857" lon="12.050296">
        <ele>463.878397</ele>
        <time>2022-10-22T14:19:47.042Z</time>
      </trkpt>
      <trkpt lat="47.844286" lon="12.050205">
        <ele>463.872508</ele>
        <time>2022-10-22T14:19:56.978Z</time>
      </trkpt>
      <trkpt lat="47.845376" lon="12.050587">
        <ele>463.758352</ele>
        <time>2022-10-22T14:20:21.623Z</time>
      </trkpt>
      <trkpt lat="47.845752" lon="12.050727">
        <ele>463.716294</ele>
        <time>2022-10-22T14:20:30.024Z</time>
      </trkpt>
      <trkpt lat="47.845784" lon="12.051096">
        <ele>463.689196</ele>
        <time>2022-10-22T14:20:39.071Z</time>
      </trkpt>
      <trkpt lat="47.845627" lon="12.051052">
        <ele>463.665219</ele>
        <time>2022-10-22T14:20:44.943Z</time>
      </trkpt>
      <trkpt lat="47.845784" lon="12.051096">
        <ele>463.621764</ele>
        <time>2022-10-22T14:20:50.688Z</time>
      </trkpt>
      <trkpt lat="47.845752" lon="12.050727">
        <ele>463.553841</ele>
        <time>2022-10-22T14:20:59.795Z</time>
      </trkpt>
      <trkpt lat="47.847324" lon="12.051269">
        <ele>463.140599</ele>
        <time>2022-10-22T14:21:34.416Z</time>
      </trkpt>
      <trkpt lat="47.848066" lon="12.051446">
        <ele>463.008973</ele>
        <time>2022-10-22T14:21:50.512Z</time>
      </trkpt>
      <trkpt lat="47.848023" lon="12.051300">
        <ele>462.990231</ele>
        <time>2022-10-22T14:21:52.996Z</time>
      </trkpt>
      <trkpt lat="47.848250" lon="12.051767">
        <ele>462.922447</ele>
        <time>2022-10-22T14:22:01.681Z</time>
      </trkpt>
      <trkpt lat="47.848477" lon="12.052408">
        <ele>462.802560</ele>
        <time>2022-10-22T14:22:19.702Z</time>
      </trkpt>
      <trkpt lat="47.848746" lon="12.053062">
        <ele>462.622269</ele>
        <time>2022-10-22T14:22:38.519Z</time>
      </trkpt>
      <trkpt lat="47.848904" lon="12.053673">
        <ele>462.468368</ele>
        <time>2022-10-22T14:22:54.019Z</time>
      </trkpt>
      <trkpt lat="47.848944" lon="12.053870">
        <ele>462.419992</ele>
        <time>2022-10-22T14:22:57.837Z</time>
      </trkpt>
      <trkpt lat="47.848990" lon="12.054155">
        <ele>462.351096</ele>
        <time>2022-10-22T14:23:03.224Z</time>
      </trkpt>
      <trkpt lat="47.849013" lon="12.054275">
        <ele>462.321764</ele>
        <time>2022-10-22T14:23:06.218Z</time>
      </trkpt>
      <trkpt lat="47.849170" lon="12.055468">
        <ele>461.991640</ele>
        <time>2022-10-22T14:23:35.555Z</time>
      </trkpt>
      <trkpt lat="47.849188" lon="12.055900">
        <ele>461.867989</ele>
        <time>2022-10-22T14:23:45.928Z</time>
      </trkpt>
      <trkpt lat="47.849178" lon="12.056310">
        <ele>461.750783</ele>
        <time>2022-10-22T14:23:55.695Z</time>
      </trkpt>
      <trkpt lat="47.849174" lon="12.056390">
        <ele>461.727865</ele>
        <time>2022-10-22T14:23:57.626Z</time>
      </trkpt>
      <trkpt lat="47.849164" lon="12.056591">
        <ele>461.670286</ele>
        <time>2022-10-22T14:24:02.495Z</time>
      </trkpt>
      <trkpt lat="47.849133" lon="12.057222">
        <ele>461.489540</ele>
        <time>2022-10-22T14:24:11.515Z</time>
      </trkpt>
      <trkpt lat="47.849072" lon="12.057739">
        <ele>461.481880</ele>
        <time>2022-10-22T14:24:19.119Z</time>
      </trkpt>
      <trkpt lat="47.849006" lon="12.058260">
        <ele>461.488029</ele>
        <time>2022-10-22T14:24:26.976Z</time>
      </trkpt>
      <trkpt lat="47.848849" lon="12.059432">
        <ele>461.501890</ele>
        <time>2022-10-22T14:24:45.468Z</time>
      </trkpt>
      <trkpt lat="47.848882" lon="12.059454">
        <ele>461.502514</ele>
        <time>2022-10-22T14:24:46.321Z</time>
      </trkpt>
      <trkpt lat="47.849076" lon="12.059626">
        <ele>461.506416</ele>
        <time>2022-10-22T14:24:51.615Z</time>
      </trkpt>
      <trkpt lat="47.849218" lon="12.059856">
        <ele>461.568938</ele>
        <time>2022-10-22T14:24:56.641Z</time>
      </trkpt>
      <trkpt lat="47.849267" lon="12.060006">
        <ele>461.614235</ele>
        <time>2022-10-22T14:24:59.265Z</time>
      </trkpt>
      <trkpt lat="47.849285" lon="12.060087">
        <ele>461.637403</ele>
        <time>2022-10-22T14:25:00.663Z</time>
      </trkpt>
      <trkpt lat="47.849323" lon="12.060332">
        <ele>461.705680</ele>
        <time>2022-10-22T14:25:04.745Z</time>
      </trkpt>
      <trkpt lat="47.849452" lon="12.060631">
        <ele>461.802196</ele>
        <time>2022-10-22T14:25:10.483Z</time>
      </trkpt>
      <trkpt lat="47.849683" lon="12.060770">
        <ele>461.902992</ele>
        <time>2022-10-22T14:25:16.544Z</time>
      </trkpt>
      <trkpt lat="47.849713" lon="12.060771">
        <ele>461.915133</ele>
        <time>2022-10-22T14:25:17.331Z</time>
      </trkpt>
      <trkpt lat="47.849969" lon="12.060791">
        <ele>462.018855</ele>
        <time>2022-10-22T14:25:23.815Z</time>
      </trkpt>
      <trkpt lat="47.850030" lon="12.060795">
        <ele>462.043559</ele>
        <time>2022-10-22T14:25:25.356Z</time>
      </trkpt>
      <trkpt lat="47.850199" lon="12.060807">
        <ele>462.112015</ele>
        <time>2022-10-22T14:25:29.655Z</time>
      </trkpt>
      <trkpt lat="47.850439" lon="12.060825">
        <ele>462.209243</ele>
        <time>2022-10-22T14:25:35.892Z</time>
      </trkpt>
      <trkpt lat="47.850455" lon="12.059942">
        <ele>462.610332</ele>
        <time>2022-10-22T14:25:51.994Z</time>
      </trkpt>
      <trkpt lat="47.850454" lon="12.059814">
        <ele>462.671287</ele>
        <time>2022-10-22T14:25:54.389Z</time>
      </trkpt>
      <trkpt lat="47.850513" lon="12.058571">
        <ele>463.264654</ele>
        <time>2022-10-22T14:26:16.219Z</time>
      </trkpt>
      <trkpt lat="47.850881" lon="12.058585">
        <ele>463.515393</ele>
        <time>2022-10-22T14:26:25.031Z</time>
      </trkpt>
      <trkpt lat="47.851014" lon="12.058603">
        <ele>463.541380</ele>
        <time>2022-10-22T14:26:28.181Z</time>
      </trkpt>
      <trkpt lat="47.851167" lon="12.058614">
        <ele>463.571187</ele>
        <time>2022-10-22T14:26:31.928Z</time>
      </trkpt>
      <trkpt lat="47.851307" lon="12.058623">
        <ele>463.598454</ele>
        <time>2022-10-22T14:26:35.285Z</time>
      </trkpt>
      <trkpt lat="47.851610" lon="12.058643">
        <ele>463.657473</ele>
        <time>2022-10-22T14:26:42.375Z</time>
      </trkpt>
      <trkpt lat="47.851626" lon="12.058321">
        <ele>463.699634</ele>
        <time>2022-10-22T14:26:47.390Z</time>
      </trkpt>
      <trkpt lat="47.851646" lon="12.057896">
        <ele>463.755267</ele>
        <time>2022-10-22T14:26:54.028Z</time>
      </trkpt>
      <trkpt lat="47.851658" lon="12.057530">
        <ele>463.803116</ele>
        <time>2022-10-22T14:26:59.722Z</time>
      </trkpt>
      <trkpt lat="47.851664" lon="12.057375">
        <ele>463.823389</ele>
        <time>2022-10-22T14:27:01.992Z</time>
      </trkpt>
      <trkpt lat="47.851719" lon="12.057013">
        <ele>463.879094</ele>
        <time>2022-10-22T14:27:07.564Z</time>
      </trkpt>
      <trkpt lat="47.851749" lon="12.056967">
        <ele>463.893288</ele>
        <time>2022-10-22T14:27:08.493Z</time>
      </trkpt>
      <trkpt lat="47.851886" lon="12.056868">
        <ele>463.943492</ele>
        <time>2022-10-22T14:27:11.730Z</time>
      </trkpt>
      <trkpt lat="47.852220" lon="12.056837">
        <ele>464.053836</ele>
        <time>2022-10-22T14:27:18.957Z</time>
      </trkpt>
      <trkpt lat="47.852274" lon="12.056730">
        <ele>464.083460</ele>
        <time>2022-10-22T14:27:21.180Z</time>
      </trkpt>
      <trkpt lat="47.852355" lon="12.056200">
        <ele>464.203733</ele>
        <time>2022-10-22T14:27:29.540Z</time>
      </trkpt>
      <trkpt lat="47.852399" lon="12.055888">
        <ele>464.274276</ele>
        <time>2022-10-22T14:27:34.469Z</time>
      </trkpt>
      <trkpt lat="47.852452" lon="12.055530">
        <ele>464.355394</ele>
        <time>2022-10-22T14:27:40.959Z</time>
      </trkpt>
      <trkpt lat="47.852526" lon="12.055085">
        <ele>464.466783</ele>
        <time>2022-10-22T14:27:49.673Z</time>
      </trkpt>
      <trkpt lat="47.852626" lon="12.054564">
        <ele>465.098442</ele>
        <time>2022-10-22T14:28:01.156Z</time>
      </trkpt>
      <trkpt lat="47.852751" lon="12.053876">
        <ele>465.929284</ele>
        <time>2022-10-22T14:28:16.513Z</time>
      </trkpt>
      <trkpt lat="47.853340" lon="12.053531">
        <ele>467.028620</ele>
        <time>2022-10-22T14:28:36.736Z</time>
      </trkpt>
      <trkpt lat="47.853839" lon="12.053576">
        <ele>467.898511</ele>
        <time>2022-10-22T14:28:53.835Z</time>
      </trkpt>
      <trkpt lat="47.854300" lon="12.053786">
        <ele>468.739833</ele>
        <time>2022-10-22T14:29:10.925Z</time>
      </trkpt>
      <trkpt lat="47.854763" lon="12.053971">
        <ele>469.576438</ele>
        <time>2022-10-22T14:29:27.519Z</time>
      </trkpt>
      <trkpt lat="47.856672" lon="12.054385">
        <ele>471.650461</ele>
        <time>2022-10-22T14:30:20.072Z</time>
      </trkpt>
      <trkpt lat="47.856736" lon="12.053610">
        <ele>472.033696</ele>
        <time>2022-10-22T14:30:33.127Z</time>
      </trkpt>
      <trkpt lat="47.857876" lon="12.053828">
        <ele>473.141209</ele>
        <time>2022-10-22T14:31:03.448Z</time>
      </trkpt>
      <trkpt lat="47.857930" lon="12.052904">
        <ele>473.740883</ele>
        <time>2022-10-22T14:31:22.550Z</time>
      </trkpt>
      <trkpt lat="47.858030" lon="12.052073">
        <ele>474.770580</ele>
        <time>2022-10-22T14:31:48.826Z</time>
      </trkpt>
      <trkpt lat="47.858183" lon="12.051821">
        <ele>475.194705</ele>
        <time>2022-10-22T14:31:59.520Z</time>
      </trkpt>
      <trkpt lat="47.858160" lon="12.051411">
        <ele>475.708153</ele>
        <time>2022-10-22T14:32:12.355Z</time>
      </trkpt>
      <trkpt lat="47.858215" lon="12.051389">
        <ele>475.814070</ele>
        <time>2022-10-22T14:32:15.138Z</time>
      </trkpt>
      <trkpt lat="47.858555" lon="12.051257">
        <ele>476.467552</ele>
        <time>2022-10-22T14:32:31.767Z</time>
      </trkpt>
      <trkpt lat="47.858749" lon="12.050892">
        <ele>477.048653</ele>
        <time>2022-10-22T14:32:46.671Z</time>
      </trkpt>
      <trkpt lat="47.859189" lon="12.050817">
        <ele>477.193516</ele>
        <time>2022-10-22T14:33:07.128Z</time>
      </trkpt>
      <trkpt lat="47.859678" lon="12.050957">
        <ele>477.292859</ele>
        <time>2022-10-22T14:33:27.039Z</time>
      </trkpt>
      <trkpt lat="47.860448" lon="12.050854">
        <ele>477.447097</ele>
        <time>2022-10-22T14:33:54.266Z</time>
      </trkpt>
      <trkpt lat="47.860481" lon="12.050680">
        <ele>477.466633</ele>
        <time>2022-10-22T14:33:58.497Z</time>
      </trkpt>
      <trkpt lat="47.860448" lon="12.050854">
        <ele>477.268449</ele>
        <time>2022-10-22T14:34:02.515Z</time>
      </trkpt>
      <trkpt lat="47.860323" lon="12.051508">
        <ele>476.523117</ele>
        <time>2022-10-22T14:34:17.701Z</time>
      </trkpt>
      <trkpt lat="47.860511" lon="12.052321">
        <ele>475.580594</ele>
        <time>2022-10-22T14:34:36.735Z</time>
      </trkpt>
      <trkpt lat="47.860809" lon="12.052862">
        <ele>474.813401</ele>
        <time>2022-10-22T14:34:52.037Z</time>
      </trkpt>
      <trkpt lat="47.860942" lon="12.052988">
        <ele>474.555957</ele>
        <time>2022-10-22T14:34:57.160Z</time>
      </trkpt>
      <trkpt lat="47.860923" lon="12.053632">
        <ele>474.123830</ele>
        <time>2022-10-22T14:35:11.407Z</time>
      </trkpt>
      <trkpt lat="47.860903" lon="12.054314">
        <ele>473.676174</ele>
        <time>2022-10-22T14:35:23.502Z</time>
      </trkpt>
      <trkpt lat="47.861116" lon="12.054245">
        <ele>473.463130</ele>
        <time>2022-10-22T14:35:27.893Z</time>
      </trkpt>
      <trkpt lat="47.861107" lon="12.056003">
        <ele>472.724828</ele>
        <time>2022-10-22T14:35:52.958Z</time>
      </trkpt>
      <trkpt lat="47.861622" lon="12.056115">
        <ele>472.670338</ele>
        <time>2022-10-22T14:36:04.332Z</time>
      </trkpt>
      <trkpt lat="47.861572" lon="12.057196">
        <ele>472.594223</ele>
        <time>2022-10-22T14:36:20.417Z</time>
      </trkpt>
      <trkpt lat="47.861526" lon="12.058584">
        <ele>473.325158</ele>
        <time>2022-10-22T14:36:43.068Z</time>
      </trkpt>
      <trkpt lat="47.861477" lon="12.059647">
        <ele>473.942094</ele>
        <time>2022-10-22T14:37:04.358Z</time>
      </trkpt>
      <trkpt lat="47.861414" lon="12.060434">
        <ele>474.290440</ele>
        <time>2022-10-22T14:37:19.496Z</time>
      </trkpt>
      <trkpt lat="47.861371" lon="12.060562">
        <ele>474.338417</ele>
        <time>2022-10-22T14:37:22.333Z</time>
      </trkpt>
      <trkpt lat="47.861300" lon="12.060631">
        <ele>474.380758</ele>
        <time>2022-10-22T14:37:24.773Z</time>
      </trkpt>
      <trkpt lat="47.861030" lon="12.061602">
        <ele>474.733037</ele>
        <time>2022-10-22T14:37:43.086Z</time>
      </trkpt>
      <trkpt lat="47.860284" lon="12.063809">
        <ele>473.838873</ele>
        <time>2022-10-22T14:38:42.215Z</time>
      </trkpt>
      <trkpt lat="47.859353" lon="12.063720">
        <ele>472.683997</ele>
        <time>2022-10-22T14:39:12.444Z</time>
      </trkpt>
      <trkpt lat="47.859246" lon="12.063747">
        <ele>472.507012</ele>
        <time>2022-10-22T14:39:16.116Z</time>
      </trkpt>
      <trkpt lat="47.859179" lon="12.063885">
        <ele>472.320621</ele>
        <time>2022-10-22T14:39:19.733Z</time>
      </trkpt>
      <trkpt lat="47.858975" lon="12.064477">
        <ele>471.592395</ele>
        <time>2022-10-22T14:39:34.512Z</time>
      </trkpt>
      <trkpt lat="47.858743" lon="12.065667">
        <ele>470.236396</ele>
        <time>2022-10-22T14:40:02.070Z</time>
      </trkpt>
      <trkpt lat="47.858225" lon="12.067077">
        <ele>469.404189</ele>
        <time>2022-10-22T14:40:39.760Z</time>
      </trkpt>
      <trkpt lat="47.858099" lon="12.067542">
        <ele>469.178721</ele>
        <time>2022-10-22T14:40:51.767Z</time>
      </trkpt>
      <trkpt lat="47.858102" lon="12.067572">
        <ele>469.165084</ele>
        <time>2022-10-22T14:40:52.523Z</time>
      </trkpt>
      <trkpt lat="47.858792" lon="12.067931">
        <ele>468.860395</ele>
        <time>2022-10-22T14:41:18.851Z</time>
      </trkpt>
      <trkpt lat="47.858762" lon="12.068058">
        <ele>468.865753</ele>
        <time>2022-10-22T14:41:22.272Z</time>
      </trkpt>
      <trkpt lat="47.859057" lon="12.068257">
        <ele>468.884958</ele>
        <time>2022-10-22T14:41:34.171Z</time>
      </trkpt>
      <trkpt lat="47.859229" lon="12.068385">
        <ele>468.896361</ele>
        <time>2022-10-22T14:41:38.401Z</time>
      </trkpt>
      <trkpt lat="47.859206" lon="12.068690">
        <ele>468.908574</ele>
        <time>2022-10-22T14:41:43.385Z</time>
      </trkpt>
      <trkpt lat="47.859363" lon="12.068682">
        <ele>468.917891</ele>
        <time>2022-10-22T14:41:47.110Z</time>
      </trkpt>
      <trkpt lat="47.860268" lon="12.068999">
        <ele>469.205507</ele>
        <time>2022-10-22T14:42:09.035Z</time>
      </trkpt>
      <trkpt lat="47.860358" lon="12.069045">
        <ele>469.273614</ele>
        <time>2022-10-22T14:42:11.305Z</time>
      </trkpt>
      <trkpt lat="47.860501" lon="12.069247">
        <ele>469.414648</ele>
        <time>2022-10-22T14:42:16.093Z</time>
      </trkpt>
      <trkpt lat="47.860712" lon="12.069545">
        <ele>469.622727</ele>
        <time>2022-10-22T14:42:23.533Z</time>
      </trkpt>
      <trkpt lat="47.861068" lon="12.070113">
        <ele>469.996033</ele>
        <time>2022-10-22T14:42:37.468Z</time>
      </trkpt>
      <trkpt lat="47.861282" lon="12.070277">
        <ele>470.168284</ele>
        <time>2022-10-22T14:42:44.182Z</time>
      </trkpt>
      <trkpt lat="47.861383" lon="12.070323">
        <ele>470.247935</ele>
        <time>2022-10-22T14:42:47.079Z</time>
      </trkpt>
      <trkpt lat="47.861300" lon="12.070456">
        <ele>470.416710</ele>
        <time>2022-10-22T14:42:50.567Z</time>
      </trkpt>
      <trkpt lat="47.859915" lon="12.071169">
        <ele>472.446001</ele>
        <time>2022-10-22T14:43:33.415Z</time>
      </trkpt>
      <trkpt lat="47.859882" lon="12.071269">
        <ele>472.549552</ele>
        <time>2022-10-22T14:43:35.670Z</time>
      </trkpt>
      <trkpt lat="47.860166" lon="12.072627">
        <ele>473.873602</ele>
        <time>2022-10-22T14:44:18.203Z</time>
      </trkpt>
      <trkpt lat="47.860550" lon="12.074214">
        <ele>475.433148</ele>
        <time>2022-10-22T14:45:07.342Z</time>
      </trkpt>
      <trkpt lat="47.861118" lon="12.076565">
        <ele>477.586391</ele>
        <time>2022-10-22T14:46:21.263Z</time>
      </trkpt>
      <trkpt lat="47.860842" lon="12.076758">
        <ele>477.521464</ele>
        <time>2022-10-22T14:46:34.298Z</time>
      </trkpt>
      <trkpt lat="47.860749" lon="12.076889">
        <ele>477.494212</ele>
        <time>2022-10-22T14:46:38.101Z</time>
      </trkpt>
      <trkpt lat="47.860614" lon="12.077352">
        <ele>477.422078</ele>
        <time>2022-10-22T14:46:46.041Z</time>
      </trkpt>
      <trkpt lat="47.860593" lon="12.077853">
        <ele>477.350352</ele>
        <time>2022-10-22T14:46:53.156Z</time>
      </trkpt>
      <trkpt lat="47.860715" lon="12.078282">
        <ele>477.283775</ele>
        <time>2022-10-22T14:46:59.325Z</time>
      </trkpt>
      <trkpt lat="47.860762" lon="12.078418">
        <ele>477.261916</ele>
        <time>2022-10-22T14:47:01.471Z</time>
      </trkpt>
      <trkpt lat="47.860812" lon="12.078729">
        <ele>477.216220</ele>
        <time>2022-10-22T14:47:05.377Z</time>
      </trkpt>
      <trkpt lat="47.860697" lon="12.079895">
        <ele>476.616665</ele>
        <time>2022-10-22T14:47:19.918Z</time>
      </trkpt>
      <trkpt lat="47.860338" lon="12.081204">
        <ele>475.879917</ele>
        <time>2022-10-22T14:47:41.990Z</time>
      </trkpt>
      <trkpt lat="47.859998" lon="12.081563">
        <ele>475.580231</ele>
        <time>2022-10-22T14:47:50.702Z</time>
      </trkpt>
      <trkpt lat="47.859862" lon="12.081812">
        <ele>475.428443</ele>
        <time>2022-10-22T14:47:55.332Z</time>
      </trkpt>
      <trkpt lat="47.859671" lon="12.082639">
        <ele>475.014962</ele>
        <time>2022-10-22T14:48:06.921Z</time>
      </trkpt>
      <trkpt lat="47.859590" lon="12.082908">
        <ele>474.875571</ele>
        <time>2022-10-22T14:48:11.417Z</time>
      </trkpt>
      <trkpt lat="47.859497" lon="12.083228">
        <ele>474.710707</ele>
        <time>2022-10-22T14:48:16.326Z</time>
      </trkpt>
      <trkpt lat="47.859250" lon="12.083870">
        <ele>473.880519</ele>
        <time>2022-10-22T14:48:26.494Z</time>
      </trkpt>
      <trkpt lat="47.859224" lon="12.083947">
        <ele>473.734488</ele>
        <time>2022-10-22T14:48:27.495Z</time>
      </trkpt>
      <trkpt lat="47.859103" lon="12.084221">
        <ele>473.178797</ele>
        <time>2022-10-22T14:48:31.371Z</time>
      </trkpt>
      <trkpt lat="47.858704" lon="12.084347">
        <ele>472.149012</ele>
        <time>2022-10-22T14:48:38.382Z</time>
      </trkpt>
      <trkpt lat="47.858335" lon="12.084657">
        <ele>471.079518</ele>
        <time>2022-10-22T14:48:45.385Z</time>
      </trkpt>
      <trkpt lat="47.858140" lon="12.084931">
        <ele>470.402856</ele>
        <time>2022-10-22T14:48:49.977Z</time>
      </trkpt>
      <trkpt lat="47.857900" lon="12.085389">
        <ele>469.439653</ele>
        <time>2022-10-22T14:48:57.053Z</time>
      </trkpt>
      <trkpt lat="47.857778" lon="12.085830">
        <ele>468.660839</ele>
        <time>2022-10-22T14:49:03.046Z</time>
      </trkpt>
      <trkpt lat="47.857743" lon="12.086228">
        <ele>468.005471</ele>
        <time>2022-10-22T14:49:08.004Z</time>
      </trkpt>
      <trkpt lat="47.857726" lon="12.086430">
        <ele>467.673083</ele>
        <time>2022-10-22T14:49:10.446Z</time>
      </trkpt>
      <trkpt lat="47.857692" lon="12.086867">
        <ele>466.954816</ele>
        <time>2022-10-22T14:49:15.753Z</time>
      </trkpt>
      <trkpt lat="47.857687" lon="12.086992">
        <ele>466.750367</ele>
        <time>2022-10-22T14:49:17.227Z</time>
      </trkpt>
      <trkpt lat="47.857694" lon="12.087230">
        <ele>466.361413</ele>
        <time>2022-10-22T14:49:20.040Z</time>
      </trkpt>
      <trkpt lat="47.857723" lon="12.087429">
        <ele>466.028932</ele>
        <time>2022-10-22T14:49:22.435Z</time>
      </trkpt>
      <trkpt lat="47.857836" lon="12.087857">
        <ele>465.193118</ele>
        <time>2022-10-22T14:49:27.857Z</time>
      </trkpt>
      <trkpt lat="47.857855" lon="12.087975">
        <ele>464.947056</ele>
        <time>2022-10-22T14:49:29.270Z</time>
      </trkpt>
      <trkpt lat="47.857881" lon="12.088213">
        <ele>464.458107</ele>
        <time>2022-10-22T14:49:32.086Z</time>
      </trkpt>
      <trkpt lat="47.857810" lon="12.089363">
        <ele>462.116393</ele>
        <time>2022-10-22T14:49:45.146Z</time>
      </trkpt>
      <trkpt lat="47.857770" lon="12.089753">
        <ele>461.316401</ele>
        <time>2022-10-22T14:49:49.670Z</time>
      </trkpt>
      <trkpt lat="47.857481" lon="12.090428">
        <ele>459.942645</ele>
        <time>2022-10-22T14:49:59.071Z</time>
      </trkpt>
      <trkpt lat="47.857463" lon="12.090655">
        <ele>459.710577</ele>
        <time>2022-10-22T14:50:01.779Z</time>
      </trkpt>
      <trkpt lat="47.857421" lon="12.091297">
        <ele>459.055689</ele>
        <time>2022-10-22T14:50:09.825Z</time>
      </trkpt>
      <trkpt lat="47.857433" lon="12.091432">
        <ele>458.917431</ele>
        <time>2022-10-22T14:50:11.686Z</time>
      </trkpt>
      <trkpt lat="47.857467" lon="12.091573">
        <ele>458.765316</ele>
        <time>2022-10-22T14:50:13.707Z</time>
      </trkpt>
      <trkpt lat="47.857523" lon="12.091809">
        <ele>458.511173</ele>
        <time>2022-10-22T14:50:16.983Z</time>
      </trkpt>
      <trkpt lat="47.857723" lon="12.092640">
        <ele>457.614862</ele>
        <time>2022-10-22T14:50:28.847Z</time>
      </trkpt>
      <trkpt lat="47.857799" lon="12.092785">
        <ele>457.466398</ele>
        <time>2022-10-22T14:50:31.204Z</time>
      </trkpt>
      <trkpt lat="47.857776" lon="12.093143">
        <ele>457.422345</ele>
        <time>2022-10-22T14:50:36.054Z</time>
      </trkpt>
      <trkpt lat="47.857687" lon="12.093643">
        <ele>457.358979</ele>
        <time>2022-10-22T14:50:43.327Z</time>
      </trkpt>
      <trkpt lat="47.857619" lon="12.093814">
        <ele>457.334630</ele>
        <time>2022-10-22T14:50:46.366Z</time>
      </trkpt>
      <trkpt lat="47.857594" lon="12.093876">
        <ele>457.325769</ele>
        <time>2022-10-22T14:50:47.437Z</time>
      </trkpt>
      <trkpt lat="47.857561" lon="12.093960">
        <ele>457.313846</ele>
        <time>2022-10-22T14:50:48.875Z</time>
      </trkpt>
      <trkpt lat="47.857247" lon="12.094641">
        <ele>457.212629</ele>
        <time>2022-10-22T14:51:02.433Z</time>
      </trkpt>
      <trkpt lat="47.857136" lon="12.095033">
        <ele>457.160510</ele>
        <time>2022-10-22T14:51:09.255Z</time>
      </trkpt>
      <trkpt lat="47.857102" lon="12.095452">
        <ele>457.021248</ele>
        <time>2022-10-22T14:51:15.513Z</time>
      </trkpt>
      <trkpt lat="47.857075" lon="12.095464">
        <ele>457.003043</ele>
        <time>2022-10-22T14:51:16.128Z</time>
      </trkpt>
      <trkpt lat="47.857043" lon="12.095491">
        <ele>456.979284</ele>
        <time>2022-10-22T14:51:16.894Z</time>
      </trkpt>
      <trkpt lat="47.856411" lon="12.096089">
        <ele>456.495589</ele>
        <time>2022-10-22T14:51:32.091Z</time>
      </trkpt>
      <trkpt lat="47.856255" lon="12.096247">
        <ele>456.373721</ele>
        <time>2022-10-22T14:51:35.988Z</time>
      </trkpt>
      <trkpt lat="47.856027" lon="12.096478">
        <ele>456.195588</ele>
        <time>2022-10-22T14:51:41.494Z</time>
      </trkpt>
      <trkpt lat="47.855862" lon="12.096644">
        <ele>456.066960</ele>
        <time>2022-10-22T14:51:45.519Z</time>
      </trkpt>
      <trkpt lat="47.855853" lon="12.096654">
        <ele>456.059707</ele>
        <time>2022-10-22T14:51:45.747Z</time>
      </trkpt>
      <trkpt lat="47.855692" lon="12.096840">
        <ele>455.863325</ele>
        <time>2022-10-22T14:51:50.006Z</time>
      </trkpt>
      <trkpt lat="47.855520" lon="12.096845">
        <ele>455.616531</ele>
        <time>2022-10-22T14:51:53.387Z</time>
      </trkpt>
      <trkpt lat="47.855416" lon="12.096848">
        <ele>455.467307</ele>
        <time>2022-10-22T14:51:55.439Z</time>
      </trkpt>
      <trkpt lat="47.855388" lon="12.096853">
        <ele>455.426851</ele>
        <time>2022-10-22T14:51:55.995Z</time>
      </trkpt>
      <trkpt lat="47.855336" lon="12.096876">
        <ele>455.349037</ele>
        <time>2022-10-22T14:51:57.076Z</time>
      </trkpt>
      <trkpt lat="47.854994" lon="12.097003">
        <ele>454.843409</ele>
        <time>2022-10-22T14:52:03.717Z</time>
      </trkpt>
      <trkpt lat="47.854599" lon="12.097060">
        <ele>454.274100</ele>
        <time>2022-10-22T14:52:10.992Z</time>
      </trkpt>
      <trkpt lat="47.854469" lon="12.097450">
        <ele>453.854907</ele>
        <time>2022-10-22T14:52:16.473Z</time>
      </trkpt>
      <trkpt lat="47.854401" lon="12.097535">
        <ele>453.727583</ele>
        <time>2022-10-22T14:52:18.205Z</time>
      </trkpt>
      <trkpt lat="47.854303" lon="12.098372">
        <ele>453.095157</ele>
        <time>2022-10-22T14:52:29.291Z</time>
      </trkpt>
      <trkpt lat="47.854299" lon="12.098398">
        <ele>453.079175</ele>
        <time>2022-10-22T14:52:29.626Z</time>
      </trkpt>
      <trkpt lat="47.853905" lon="12.098675">
        <ele>452.690198</ele>
        <time>2022-10-22T14:52:38.100Z</time>
      </trkpt>
      <trkpt lat="47.853525" lon="12.098824">
        <ele>452.339356</ele>
        <time>2022-10-22T14:52:46.105Z</time>
      </trkpt>
      <trkpt lat="47.853462" lon="12.098796">
        <ele>452.280656</ele>
        <time>2022-10-22T14:52:47.478Z</time>
      </trkpt>
      <trkpt lat="47.853445" lon="12.098727">
        <ele>452.236616</ele>
        <time>2022-10-22T14:52:48.522Z</time>
      </trkpt>
      <trkpt lat="47.853392" lon="12.098798">
        <ele>452.172984</ele>
        <time>2022-10-22T14:52:49.989Z</time>
      </trkpt>
      <trkpt lat="47.853319" lon="12.098896">
        <ele>452.085257</ele>
        <time>2022-10-22T14:52:52.043Z</time>
      </trkpt>
      <trkpt lat="47.853271" lon="12.098961">
        <ele>452.027347</ele>
        <time>2022-10-22T14:52:53.418Z</time>
      </trkpt>
      <trkpt lat="47.853051" lon="12.099208">
        <ele>451.788889</ele>
        <time>2022-10-22T14:52:59.229Z</time>
      </trkpt>
      <trkpt lat="47.852939" lon="12.099412">
        <ele>451.718620</ele>
        <time>2022-10-22T14:53:02.980Z</time>
      </trkpt>
      <trkpt lat="47.852893" lon="12.099488">
        <ele>451.691335</ele>
        <time>2022-10-22T14:53:04.424Z</time>
      </trkpt>
      <trkpt lat="47.852773" lon="12.099631">
        <ele>451.630292</ele>
        <time>2022-10-22T14:53:07.659Z</time>
      </trkpt>
      <trkpt lat="47.852681" lon="12.099697">
        <ele>451.589727</ele>
        <time>2022-10-22T14:53:09.787Z</time>
      </trkpt>
      <trkpt lat="47.852511" lon="12.099841">
        <ele>451.512040</ele>
        <time>2022-10-22T14:53:14.025Z</time>
      </trkpt>
      <trkpt lat="47.852073" lon="12.100155">
        <ele>451.318939</ele>
        <time>2022-10-22T14:53:24.445Z</time>
      </trkpt>
      <trkpt lat="47.851994" lon="12.100215">
        <ele>451.283712</ele>
        <time>2022-10-22T14:53:26.215Z</time>
      </trkpt>
      <trkpt lat="47.851579" lon="12.100506">
        <ele>451.101497</ele>
        <time>2022-10-22T14:53:36.066Z</time>
      </trkpt>
      <trkpt lat="47.851040" lon="12.101012">
        <ele>451.220549</ele>
        <time>2022-10-22T14:53:51.540Z</time>
      </trkpt>
      <trkpt lat="47.850779" lon="12.101598">
        <ele>451.333944</ele>
        <time>2022-10-22T14:54:02.652Z</time>
      </trkpt>
      <trkpt lat="47.850559" lon="12.102187">
        <ele>451.442626</ele>
        <time>2022-10-22T14:54:13.181Z</time>
      </trkpt>
      <trkpt lat="47.850387" lon="12.102618">
        <ele>451.510628</ele>
        <time>2022-10-22T14:54:20.981Z</time>
      </trkpt>
      <trkpt lat="47.850365" lon="12.102674">
        <ele>451.508905</ele>
        <time>2022-10-22T14:54:22.084Z</time>
      </trkpt>
      <trkpt lat="47.850161" lon="12.103194">
        <ele>451.492907</ele>
        <time>2022-10-22T14:54:32.151Z</time>
      </trkpt>
      <trkpt lat="47.850293" lon="12.103554">
        <ele>451.482011</ele>
        <time>2022-10-22T14:54:39.080Z</time>
      </trkpt>
      <trkpt lat="47.850307" lon="12.103593">
        <ele>451.480837</ele>
        <time>2022-10-22T14:54:39.807Z</time>
      </trkpt>
      <trkpt lat="47.850541" lon="12.104566">
        <ele>451.453385</ele>
        <time>2022-10-22T14:54:55.228Z</time>
      </trkpt>
      <trkpt lat="47.850655" lon="12.105573">
        <ele>451.146476</ele>
        <time>2022-10-22T14:55:08.772Z</time>
      </trkpt>
      <trkpt lat="47.850642" lon="12.107071">
        <ele>450.364369</ele>
        <time>2022-10-22T14:55:28.638Z</time>
      </trkpt>
      <trkpt lat="47.850629" lon="12.107352">
        <ele>450.217323</ele>
        <time>2022-10-22T14:55:32.575Z</time>
      </trkpt>
      <trkpt lat="47.850538" lon="12.108040">
        <ele>450.170199</ele>
        <time>2022-10-22T14:55:42.615Z</time>
      </trkpt>
      <trkpt lat="47.850438" lon="12.108453">
        <ele>450.324240</ele>
        <time>2022-10-22T14:55:49.387Z</time>
      </trkpt>
      <trkpt lat="47.850312" lon="12.108747">
        <ele>450.446627</ele>
        <time>2022-10-22T14:55:55.210Z</time>
      </trkpt>
      <trkpt lat="47.850296" lon="12.108774">
        <ele>450.459265</ele>
        <time>2022-10-22T14:55:55.789Z</time>
      </trkpt>
      <trkpt lat="47.849882" lon="12.109364">
        <ele>450.758757</ele>
        <time>2022-10-22T14:56:10.589Z</time>
      </trkpt>
      <trkpt lat="47.849159" lon="12.109881">
        <ele>451.242602</ele>
        <time>2022-10-22T14:56:33.725Z</time>
      </trkpt>
      <trkpt lat="47.848292" lon="12.110275">
        <ele>451.872905</ele>
        <time>2022-10-22T14:56:57.765Z</time>
      </trkpt>
      <trkpt lat="47.848246" lon="12.110290">
        <ele>451.905650</ele>
        <time>2022-10-22T14:56:58.917Z</time>
      </trkpt>
      <trkpt lat="47.847786" lon="12.110420">
        <ele>452.231224</ele>
        <time>2022-10-22T14:57:09.577Z</time>
      </trkpt>
      <trkpt lat="47.847557" lon="12.110493">
        <ele>452.293698</ele>
        <time>2022-10-22T14:57:14.487Z</time>
      </trkpt>
      <trkpt lat="47.847476" lon="12.110517">
        <ele>452.315322</ele>
        <time>2022-10-22T14:57:16.295Z</time>
      </trkpt>
      <trkpt lat="47.847512" lon="12.111021">
        <ele>452.404386</ele>
        <time>2022-10-22T14:57:24.239Z</time>
      </trkpt>
      <trkpt lat="47.847116" lon="12.112605">
        <ele>452.701414</ele>
        <time>2022-10-22T14:57:51.976Z</time>
      </trkpt>
      <trkpt lat="47.846712" lon="12.112879">
        <ele>452.716265</ele>
        <time>2022-10-22T14:58:02.043Z</time>
      </trkpt>
      <trkpt lat="47.846492" lon="12.113137">
        <ele>452.724159</ele>
        <time>2022-10-22T14:58:08.372Z</time>
      </trkpt>
      <trkpt lat="47.846403" lon="12.114672">
        <ele>452.753315</ele>
        <time>2022-10-22T14:58:31.943Z</time>
      </trkpt>
      <trkpt lat="47.846451" lon="12.114912">
        <ele>452.705275</ele>
        <time>2022-10-22T14:58:35.402Z</time>
      </trkpt>
      <trkpt lat="47.846725" lon="12.115508">
        <ele>452.500757</ele>
        <time>2022-10-22T14:58:45.483Z</time>
      </trkpt>
      <trkpt lat="47.846939" lon="12.116915">
        <ele>452.092339</ele>
        <time>2022-10-22T14:59:05.438Z</time>
      </trkpt>
      <trkpt lat="47.847189" lon="12.117781">
        <ele>451.943636</ele>
        <time>2022-10-22T14:59:19.376Z</time>
      </trkpt>
      <trkpt lat="47.846615" lon="12.119407">
        <ele>451.783884</ele>
        <time>2022-10-22T14:59:47.039Z</time>
      </trkpt>
      <trkpt lat="47.846105" lon="12.120658">
        <ele>450.923126</ele>
        <time>2022-10-22T15:00:07.206Z</time>
      </trkpt>
      <trkpt lat="47.845940" lon="12.121079">
        <ele>450.588429</ele>
        <time>2022-10-22T15:00:13.354Z</time>
      </trkpt>
      <trkpt lat="47.845669" lon="12.121460">
        <ele>450.207295</ele>
        <time>2022-10-22T15:00:20.607Z</time>
      </trkpt>
      <trkpt lat="47.845480" lon="12.122276">
        <ele>449.637899</ele>
        <time>2022-10-22T15:00:31.997Z</time>
      </trkpt>
      <trkpt lat="47.845419" lon="12.122302">
        <ele>449.577885</ele>
        <time>2022-10-22T15:00:33.096Z</time>
      </trkpt>
      <trkpt lat="47.845373" lon="12.122826">
        <ele>449.242406</ele>
        <time>2022-10-22T15:00:39.854Z</time>
      </trkpt>
      <trkpt lat="47.845421" lon="12.122913">
        <ele>449.170910</ele>
        <time>2022-10-22T15:00:41.289Z</time>
      </trkpt>
      <trkpt lat="47.845590" lon="12.123101">
        <ele>448.971418</ele>
        <time>2022-10-22T15:00:48.879Z</time>
      </trkpt>
      <trkpt lat="47.845538" lon="12.123337">
        <ele>448.813733</ele>
        <time>2022-10-22T15:00:52.206Z</time>
      </trkpt>
      <trkpt lat="47.845234" lon="12.124111">
        <ele>448.244427</ele>
        <time>2022-10-22T15:01:04.447Z</time>
      </trkpt>
      <trkpt lat="47.845182" lon="12.124470">
        <ele>448.200411</ele>
        <time>2022-10-22T15:01:09.477Z</time>
      </trkpt>
      <trkpt lat="47.845148" lon="12.124461">
        <ele>448.197096</ele>
        <time>2022-10-22T15:01:10.247Z</time>
      </trkpt>
      <trkpt lat="47.844584" lon="12.124265">
        <ele>448.141500</ele>
        <time>2022-10-22T15:01:24.417Z</time>
      </trkpt>
      <trkpt lat="47.844570" lon="12.124260">
        <ele>448.140118</ele>
        <time>2022-10-22T15:01:24.729Z</time>
      </trkpt>
      <trkpt lat="47.844544" lon="12.124251">
        <ele>448.137556</ele>
        <time>2022-10-22T15:01:25.332Z</time>
      </trkpt>
      <trkpt lat="47.844493" lon="12.124232">
        <ele>448.132509</ele>
        <time>2022-10-22T15:01:26.527Z</time>
      </trkpt>
      <trkpt lat="47.844465" lon="12.124462">
        <ele>448.117449</ele>
        <time>2022-10-22T15:01:30.120Z</time>
      </trkpt>
      <trkpt lat="47.844560" lon="12.124842">
        <ele>448.091322</ele>
        <time>2022-10-22T15:01:36.196Z</time>
      </trkpt>
      <trkpt lat="47.844802" lon="12.126478">
        <ele>447.965949</ele>
        <time>2022-10-22T15:02:00.994Z</time>
      </trkpt>
      <trkpt lat="47.845025" lon="12.127304">
        <ele>447.893366</ele>
        <time>2022-10-22T15:02:14.045Z</time>
      </trkpt>
      <trkpt lat="47.844918" lon="12.127417">
        <ele>447.877435</ele>
        <time>2022-10-22T15:02:18.837Z</time>
      </trkpt>
      <trkpt lat="47.844860" lon="12.127424">
        <ele>447.870366</ele>
        <time>2022-10-22T15:02:20.153Z</time>
      </trkpt>
      <trkpt lat="47.845258" lon="12.128264">
        <ele>447.722976</ele>
        <time>2022-10-22T15:02:35.342Z</time>
      </trkpt>
      <trkpt lat="47.844085" lon="12.129585">
        <ele>447.285994</ele>
        <time>2022-10-22T15:03:06.472Z</time>
      </trkpt>
      <trkpt lat="47.844374" lon="12.130091">
        <ele>447.142793</ele>
        <time>2022-10-22T15:03:16.053Z</time>
      </trkpt>
      <trkpt lat="47.843832" lon="12.130743">
        <ele>446.919094</ele>
        <time>2022-10-22T15:03:35.781Z</time>
      </trkpt>
      <trkpt lat="47.843807" lon="12.130770">
        <ele>446.909178</ele>
        <time>2022-10-22T15:03:36.640Z</time>
      </trkpt>
      <trkpt lat="47.843461" lon="12.130209">
        <ele>446.744966</ele>
        <time>2022-10-22T15:03:47.444Z</time>
      </trkpt>
      <trkpt lat="47.843407" lon="12.130248">
        <ele>446.725696</ele>
        <time>2022-10-22T15:03:48.699Z</time>
      </trkpt>
      <trkpt lat="47.843428" lon="12.130331">
        <ele>446.716839</ele>
        <time>2022-10-22T15:03:49.971Z</time>
      </trkpt>
      <trkpt lat="47.843598" lon="12.130718">
        <ele>446.696214</ele>
        <time>2022-10-22T15:03:56.705Z</time>
      </trkpt>
      <trkpt lat="47.843940" lon="12.131516">
        <ele>446.653993</ele>
        <time>2022-10-22T15:04:10.760Z</time>
      </trkpt>
      <trkpt lat="47.844273" lon="12.132992">
        <ele>446.591821</ele>
        <time>2022-10-22T15:04:34.157Z</time>
      </trkpt>
      <trkpt lat="47.844342" lon="12.134035">
        <ele>446.567051</ele>
        <time>2022-10-22T15:04:50.056Z</time>
      </trkpt>
      <trkpt lat="47.844296" lon="12.135191">
        <ele>446.539682</ele>
        <time>2022-10-22T15:05:06.954Z</time>
      </trkpt>
      <trkpt lat="47.844300" lon="12.135326">
        <ele>446.541325</ele>
        <time>2022-10-22T15:05:08.921Z</time>
      </trkpt>
      <trkpt lat="47.844321" lon="12.136397">
        <ele>447.174580</ele>
        <time>2022-10-22T15:05:25.075Z</time>
      </trkpt>
      <trkpt lat="47.844347" lon="12.136980">
        <ele>447.519905</ele>
        <time>2022-10-22T15:05:36.557Z</time>
      </trkpt>
      <trkpt lat="47.844538" lon="12.137515">
        <ele>447.878054</ele>
        <time>2022-10-22T15:05:48.381Z</time>
      </trkpt>
      <trkpt lat="47.844687" lon="12.137775">
        <ele>448.080116</ele>
        <time>2022-10-22T15:05:55.604Z</time>
      </trkpt>
      <trkpt lat="47.844644" lon="12.137856">
        <ele>448.168055</ele>
        <time>2022-10-22T15:05:57.296Z</time>
      </trkpt>
      <trkpt lat="47.844607" lon="12.138016">
        <ele>448.398878</ele>
        <time>2022-10-22T15:06:00.958Z</time>
      </trkpt>
      <trkpt lat="47.844645" lon="12.138428">
        <ele>448.966108</ele>
        <time>2022-10-22T15:06:09.216Z</time>
      </trkpt>
      <trkpt lat="47.844676" lon="12.138827">
        <ele>449.513959</ele>
        <time>2022-10-22T15:06:17.895Z</time>
      </trkpt>
      <trkpt lat="47.844628" lon="12.138953">
        <ele>449.711573</ele>
        <time>2022-10-22T15:06:20.615Z</time>
      </trkpt>
      <trkpt lat="47.844257" lon="12.139101">
        <ele>450.492104</ele>
        <time>2022-10-22T15:06:33.414Z</time>
      </trkpt>
      <trkpt lat="47.844098" lon="12.139314">
        <ele>450.926638</ele>
        <time>2022-10-22T15:06:41.094Z</time>
      </trkpt>
      <trkpt lat="47.843926" lon="12.139682">
        <ele>451.538300</ele>
        <time>2022-10-22T15:06:51.954Z</time>
      </trkpt>
      <trkpt lat="47.843659" lon="12.140596">
        <ele>452.665961</ele>
        <time>2022-10-22T15:07:14.136Z</time>
      </trkpt>
      <trkpt lat="47.843570" lon="12.141589">
        <ele>453.749893</ele>
        <time>2022-10-22T15:07:34.492Z</time>
      </trkpt>
      <trkpt lat="47.843593" lon="12.142007">
        <ele>454.203673</ele>
        <time>2022-10-22T15:07:42.662Z</time>
      </trkpt>
      <trkpt lat="47.843590" lon="12.142129">
        <ele>454.335762</ele>
        <time>2022-10-22T15:07:44.667Z</time>
      </trkpt>
      <trkpt lat="47.843725" lon="12.142978">
        <ele>454.698723</ele>
        <time>2022-10-22T15:08:00.186Z</time>
      </trkpt>
      <trkpt lat="47.843907" lon="12.144179">
        <ele>454.749881</ele>
        <time>2022-10-22T15:08:18.547Z</time>
      </trkpt>
      <trkpt lat="47.844037" lon="12.145747">
        <ele>454.543571</ele>
        <time>2022-10-22T15:08:40.723Z</time>
      </trkpt>
      <trkpt lat="47.843939" lon="12.146013">
        <ele>454.436530</ele>
        <time>2022-10-22T15:08:44.892Z</time>
      </trkpt>
      <trkpt lat="47.843899" lon="12.146313">
        <ele>454.328636</ele>
        <time>2022-10-22T15:08:49.202Z</time>
      </trkpt>
      <trkpt lat="47.843875" lon="12.146397">
        <ele>454.296431</ele>
        <time>2022-10-22T15:08:50.702Z</time>
      </trkpt>
      <trkpt lat="47.843923" lon="12.146601">
        <ele>454.220175</ele>
        <time>2022-10-22T15:08:53.638Z</time>
      </trkpt>
      <trkpt lat="47.844216" lon="12.146882">
        <ele>454.037032</ele>
        <time>2022-10-22T15:09:01.097Z</time>
      </trkpt>
      <trkpt lat="47.844312" lon="12.147325">
        <ele>453.872819</ele>
        <time>2022-10-22T15:09:07.735Z</time>
      </trkpt>
      <trkpt lat="47.844516" lon="12.149187">
        <ele>452.715014</ele>
        <time>2022-10-22T15:09:33.147Z</time>
      </trkpt>
      <trkpt lat="47.845035" lon="12.150440">
        <ele>451.807287</ele>
        <time>2022-10-22T15:09:52.488Z</time>
      </trkpt>
      <trkpt lat="47.845242" lon="12.150370">
        <ele>451.617068</ele>
        <time>2022-10-22T15:09:56.593Z</time>
      </trkpt>
      <trkpt lat="47.845308" lon="12.150844">
        <ele>451.325919</ele>
        <time>2022-10-22T15:10:02.934Z</time>
      </trkpt>
      <trkpt lat="47.845347" lon="12.151243">
        <ele>451.083416</ele>
        <time>2022-10-22T15:10:08.221Z</time>
      </trkpt>
      <trkpt lat="47.845446" lon="12.151516">
        <ele>450.896790</ele>
        <time>2022-10-22T15:10:12.354Z</time>
      </trkpt>
      <trkpt lat="47.846018" lon="12.152547">
        <ele>450.734194</ele>
        <time>2022-10-22T15:10:32.062Z</time>
      </trkpt>
      <trkpt lat="47.846520" lon="12.153337">
        <ele>450.996484</ele>
        <time>2022-10-22T15:10:50.291Z</time>
      </trkpt>
      <trkpt lat="47.846636" lon="12.153486">
        <ele>451.051501</ele>
        <time>2022-10-22T15:10:54.131Z</time>
      </trkpt>
      <trkpt lat="47.847245" lon="12.154230">
        <ele>451.452241</ele>
        <time>2022-10-22T15:11:14.571Z</time>
      </trkpt>
      <trkpt lat="47.848134" lon="12.155138">
        <ele>452.170587</ele>
        <time>2022-10-22T15:11:41.295Z</time>
      </trkpt>
      <trkpt lat="47.848322" lon="12.155182">
        <ele>452.297424</ele>
        <time>2022-10-22T15:11:45.763Z</time>
      </trkpt>
      <trkpt lat="47.848426" lon="12.155139">
        <ele>452.369358</ele>
        <time>2022-10-22T15:11:49.082Z</time>
      </trkpt>
      <trkpt lat="47.848458" lon="12.155188">
        <ele>452.408626</ele>
        <time>2022-10-22T15:11:50.416Z</time>
      </trkpt>
      <trkpt lat="47.848379" lon="12.155282">
        <ele>452.605680</ele>
        <time>2022-10-22T15:11:52.629Z</time>
      </trkpt>
      <trkpt lat="47.848267" lon="12.155291">
        <ele>452.824305</ele>
        <time>2022-10-22T15:11:55.524Z</time>
      </trkpt>
      <trkpt lat="47.847903" lon="12.155043">
        <ele>453.604453</ele>
        <time>2022-10-22T15:12:07.760Z</time>
      </trkpt>
      <trkpt lat="47.847645" lon="12.154788">
        <ele>454.207911</ele>
        <time>2022-10-22T15:12:17.240Z</time>
      </trkpt>
      <trkpt lat="47.847874" lon="12.155442">
        <ele>455.172854</ele>
        <time>2022-10-22T15:12:34.334Z</time>
      </trkpt>
      <trkpt lat="47.847884" lon="12.155717">
        <ele>455.533108</ele>
        <time>2022-10-22T15:12:39.860Z</time>
      </trkpt>
      <trkpt lat="47.847830" lon="12.156080">
        <ele>456.127654</ele>
        <time>2022-10-22T15:12:48.950Z</time>
      </trkpt>
      <trkpt lat="47.847672" lon="12.156371">
        <ele>457.065539</ele>
        <time>2022-10-22T15:12:58.552Z</time>
      </trkpt>
      <trkpt lat="47.847160" lon="12.156688">
        <ele>459.135586</ele>
        <time>2022-10-22T15:13:22.637Z</time>
      </trkpt>
      <trkpt lat="47.846910" lon="12.156987">
        <ele>460.332464</ele>
        <time>2022-10-22T15:13:37.198Z</time>
      </trkpt>
      <trkpt lat="47.846678" lon="12.157419">
        <ele>461.718820</ele>
        <time>2022-10-22T15:13:53.665Z</time>
      </trkpt>
      <trkpt lat="47.846241" lon="12.158328">
        <ele>463.707867</ele>
        <time>2022-10-22T15:14:22.770Z</time>
      </trkpt>
      <trkpt lat="47.845904" lon="12.159040">
        <ele>464.959079</ele>
        <time>2022-10-22T15:14:42.876Z</time>
      </trkpt>
      <trkpt lat="47.845160" lon="12.160403">
        <ele>466.841981</ele>
        <time>2022-10-22T15:15:17.023Z</time>
      </trkpt>
      <trkpt lat="47.845183" lon="12.160450">
        <ele>466.872914</ele>
        <time>2022-10-22T15:15:17.949Z</time>
      </trkpt>
      <trkpt lat="47.844881" lon="12.160815">
        <ele>467.181040</ele>
        <time>2022-10-22T15:15:26.638Z</time>
      </trkpt>
      <trkpt lat="47.844191" lon="12.161354">
        <ele>467.798367</ele>
        <time>2022-10-22T15:15:46.647Z</time>
      </trkpt>
      <trkpt lat="47.843576" lon="12.162263">
        <ele>468.883182</ele>
        <time>2022-10-22T15:16:11.824Z</time>
      </trkpt>
      <trkpt lat="47.843327" lon="12.162906">
        <ele>469.542737</ele>
        <time>2022-10-22T15:16:27.168Z</time>
      </trkpt>
      <trkpt lat="47.842960" lon="12.163657">
        <ele>470.297252</ele>
        <time>2022-10-22T15:16:44.884Z</time>
      </trkpt>
      <trkpt lat="47.842500" lon="12.164125">
        <ele>470.492598</ele>
        <time>2022-10-22T15:16:59.839Z</time>
      </trkpt>
      <trkpt lat="47.842223" lon="12.164256">
        <ele>470.594520</ele>
        <time>2022-10-22T15:17:06.948Z</time>
      </trkpt>
      <trkpt lat="47.841321" lon="12.164291">
        <ele>470.907719</ele>
        <time>2022-10-22T15:17:26.236Z</time>
      </trkpt>
      <trkpt lat="47.840963" lon="12.164362">
        <ele>470.985797</ele>
        <time>2022-10-22T15:17:34.387Z</time>
      </trkpt>
      <trkpt lat="47.840838" lon="12.164560">
        <ele>471.025240</ele>
        <time>2022-10-22T15:17:38.888Z</time>
      </trkpt>
      <trkpt lat="47.840694" lon="12.164614">
        <ele>471.057343</ele>
        <time>2022-10-22T15:17:42.060Z</time>
      </trkpt>
      <trkpt lat="47.840634" lon="12.164583">
        <ele>471.071072</ele>
        <time>2022-10-22T15:17:43.440Z</time>
      </trkpt>
      <trkpt lat="47.840633" lon="12.164683">
        <ele>471.085584</ele>
        <time>2022-10-22T15:17:45.088Z</time>
      </trkpt>
      <trkpt lat="47.840218" lon="12.166358">
        <ele>471.549166</ele>
        <time>2022-10-22T15:18:13.795Z</time>
      </trkpt>
      <trkpt lat="47.839804" lon="12.167442">
        <ele>472.424345</ele>
        <time>2022-10-22T15:18:36.496Z</time>
      </trkpt>
      <trkpt lat="47.839367" lon="12.168207">
        <ele>473.129256</ele>
        <time>2022-10-22T15:18:56.419Z</time>
      </trkpt>
      <trkpt lat="47.838714" lon="12.169188">
        <ele>473.755282</ele>
        <time>2022-10-22T15:19:23.850Z</time>
      </trkpt>
      <trkpt lat="47.838130" lon="12.170296">
        <ele>474.314447</ele>
        <time>2022-10-22T15:19:45.736Z</time>
      </trkpt>
      <trkpt lat="47.837390" lon="12.171772">
        <ele>472.808775</ele>
        <time>2022-10-22T15:20:10.049Z</time>
      </trkpt>
      <trkpt lat="47.836976" lon="12.172351">
        <ele>472.115575</ele>
        <time>2022-10-22T15:20:20.305Z</time>
      </trkpt>
      <trkpt lat="47.836315" lon="12.173089">
        <ele>471.072144</ele>
        <time>2022-10-22T15:20:35.741Z</time>
      </trkpt>
      <trkpt lat="47.835972" lon="12.173470">
        <ele>470.531687</ele>
        <time>2022-10-22T15:20:44.343Z</time>
      </trkpt>
      <trkpt lat="47.834306" lon="12.175262">
        <ele>469.314671</ele>
        <time>2022-10-22T15:21:26.862Z</time>
      </trkpt>
      <trkpt lat="47.834158" lon="12.175414">
        <ele>469.247537</ele>
        <time>2022-10-22T15:21:31.223Z</time>
      </trkpt>
      <trkpt lat="47.833760" lon="12.175821">
        <ele>469.670007</ele>
        <time>2022-10-22T15:21:43.262Z</time>
      </trkpt>
      <trkpt lat="47.832897" lon="12.176777">
        <ele>470.836312</ele>
        <time>2022-10-22T15:22:12.692Z</time>
      </trkpt>
      <trkpt lat="47.832558" lon="12.177131">
        <ele>471.490189</ele>
        <time>2022-10-22T15:22:25.976Z</time>
      </trkpt>
      <trkpt lat="47.832331" lon="12.177392">
        <ele>472.364799</ele>
        <time>2022-10-22T15:22:35.659Z</time>
      </trkpt>
      <trkpt lat="47.832167" lon="12.177566">
        <ele>472.978911</ele>
        <time>2022-10-22T15:22:42.750Z</time>
      </trkpt>
      <trkpt lat="47.832084" lon="12.177558">
        <ele>473.232594</ele>
        <time>2022-10-22T15:22:45.589Z</time>
      </trkpt>
      <trkpt lat="47.830057" lon="12.179768">
        <ele>482.016756</ele>
        <time>2022-10-22T15:24:27.823Z</time>
      </trkpt>
      <trkpt lat="47.829683" lon="12.180334">
        <ele>484.019682</ele>
        <time>2022-10-22T15:24:51.539Z</time>
      </trkpt>
      <trkpt lat="47.829379" lon="12.180943">
        <ele>485.761557</ele>
        <time>2022-10-22T15:25:13.072Z</time>
      </trkpt>
      <trkpt lat="47.828888" lon="12.181558">
        <ele>487.954864</ele>
        <time>2022-10-22T15:25:39.063Z</time>
      </trkpt>
      <trkpt lat="47.827128" lon="12.182842">
        <ele>492.632207</ele>
        <time>2022-10-22T15:26:45.376Z</time>
      </trkpt>
      <trkpt lat="47.826346" lon="12.183615">
        <ele>493.472601</ele>
        <time>2022-10-22T15:27:11.490Z</time>
      </trkpt>
      <trkpt lat="47.825785" lon="12.184086">
        <ele>493.596298</ele>
        <time>2022-10-22T15:27:26.303Z</time>
      </trkpt>
      <trkpt lat="47.824866" lon="12.184437">
        <ele>493.417457</ele>
        <time>2022-10-22T15:27:45.549Z</time>
      </trkpt>
      <trkpt lat="47.824604" lon="12.184399">
        <ele>493.210733</ele>
        <time>2022-10-22T15:27:50.643Z</time>
      </trkpt>
      <trkpt lat="47.824241" lon="12.184003">
        <ele>492.857381</ele>
        <time>2022-10-22T15:27:59.323Z</time>
      </trkpt>
      <trkpt lat="47.824127" lon="12.183943">
        <ele>492.762430</ele>
        <time>2022-10-22T15:28:01.790Z</time>
      </trkpt>
      <trkpt lat="47.823137" lon="12.184278">
        <ele>492.296383</ele>
        <time>2022-10-22T15:28:23.429Z</time>
      </trkpt>
      <trkpt lat="47.822792" lon="12.184904">
        <ele>492.298064</ele>
        <time>2022-10-22T15:28:35.595Z</time>
      </trkpt>
      <trkpt lat="47.822748" lon="12.185101">
        <ele>492.298495</ele>
        <time>2022-10-22T15:28:39.239Z</time>
      </trkpt>
      <trkpt lat="47.822470" lon="12.185117">
        <ele>492.299355</ele>
        <time>2022-10-22T15:28:45.579Z</time>
      </trkpt>
      <trkpt lat="47.821368" lon="12.184853">
        <ele>491.589116</ele>
        <time>2022-10-22T15:29:10.977Z</time>
      </trkpt>
      <trkpt lat="47.820922" lon="12.184878">
        <ele>491.134810</ele>
        <time>2022-10-22T15:29:19.580Z</time>
      </trkpt>
      <trkpt lat="47.818241" lon="12.185600">
        <ele>486.174928</ele>
        <time>2022-10-22T15:30:09.556Z</time>
      </trkpt>
      <trkpt lat="47.817022" lon="12.185818">
        <ele>483.301801</ele>
        <time>2022-10-22T15:30:31.503Z</time>
      </trkpt>
      <trkpt lat="47.816094" lon="12.185761">
        <ele>480.984485</ele>
        <time>2022-10-22T15:30:47.907Z</time>
      </trkpt>
      <trkpt lat="47.815365" lon="12.185803">
        <ele>479.110815</ele>
        <time>2022-10-22T15:31:00.742Z</time>
      </trkpt>
      <trkpt lat="47.814240" lon="12.185681">
        <ele>476.974060</ele>
        <time>2022-10-22T15:31:20.880Z</time>
      </trkpt>
      <trkpt lat="47.813222" lon="12.185701">
        <ele>475.482126</ele>
        <time>2022-10-22T15:31:40.624Z</time>
      </trkpt>
      <trkpt lat="47.811352" lon="12.185599">
        <ele>475.961237</ele>
        <time>2022-10-22T15:32:26.081Z</time>
      </trkpt>
      <trkpt lat="47.811158" lon="12.185498">
        <ele>476.173048</ele>
        <time>2022-10-22T15:32:31.990Z</time>
      </trkpt>
      <trkpt lat="47.811041" lon="12.185411">
        <ele>476.316781</ele>
        <time>2022-10-22T15:32:35.317Z</time>
      </trkpt>
      <trkpt lat="47.810992" lon="12.185543">
        <ele>476.428105</ele>
        <time>2022-10-22T15:32:38.631Z</time>
      </trkpt>
      <trkpt lat="47.809089" lon="12.185500">
        <ele>479.038269</ele>
        <time>2022-10-22T15:33:31.770Z</time>
      </trkpt>
      <trkpt lat="47.807438" lon="12.185613">
        <ele>482.964512</ele>
        <time>2022-10-22T15:34:28.629Z</time>
      </trkpt>
      <trkpt lat="47.807489" lon="12.185783">
        <ele>483.382475</ele>
        <time>2022-10-22T15:34:33.689Z</time>
      </trkpt>
      <trkpt lat="47.806425" lon="12.186169">
        <ele>487.042837</ele>
        <time>2022-10-22T15:35:19.527Z</time>
      </trkpt>
      <trkpt lat="47.805543" lon="12.186709">
        <ele>489.343321</ele>
        <time>2022-10-22T15:35:54.247Z</time>
      </trkpt>
      <trkpt lat="47.805214" lon="12.186998">
        <ele>490.170000</ele>
        <time>2022-10-22T15:36:06.141Z</time>
      </trkpt>
      <trkpt lat="47.804943" lon="12.187251">
        <ele>490.862237</ele>
        <time>2022-10-22T15:36:15.338Z</time>
      </trkpt>
      <trkpt lat="47.804538" lon="12.187698">
        <ele>491.866103</ele>
        <time>2022-10-22T15:36:29.947Z</time>
      </trkpt>
      <trkpt lat="47.803924" lon="12.188536">
        <ele>493.215429</ele>
        <time>2022-10-22T15:36:55.284Z</time>
      </trkpt>
      <trkpt lat="47.802942" lon="12.190372">
        <ele>494.840701</ele>
        <time>2022-10-22T15:37:44.467Z</time>
      </trkpt>
      <trkpt lat="47.801712" lon="12.193223">
        <ele>495.139459</ele>
        <time>2022-10-22T15:38:31.425Z</time>
      </trkpt>
      <trkpt lat="47.800914" lon="12.194543">
        <ele>496.277089</ele>
        <time>2022-10-22T15:39:03.525Z</time>
      </trkpt>
      <trkpt lat="47.800063" lon="12.195458">
        <ele>498.228345</ele>
        <time>2022-10-22T15:39:38.217Z</time>
      </trkpt>
      <trkpt lat="47.798694" lon="12.196715">
        <ele>504.085587</ele>
        <time>2022-10-22T15:40:40.219Z</time>
      </trkpt>
      <trkpt lat="47.798074" lon="12.197571">
        <ele>508.761314</ele>
        <time>2022-10-22T15:41:24.355Z</time>
      </trkpt>
      <trkpt lat="47.797558" lon="12.198518">
        <ele>514.070204</ele>
        <time>2022-10-22T15:42:11.304Z</time>
      </trkpt>
      <trkpt lat="47.797284" lon="12.199273">
        <ele>517.456274</ele>
        <time>2022-10-22T15:42:44.962Z</time>
      </trkpt>
      <trkpt lat="47.797100" lon="12.200008">
        <ele>519.606923</ele>
        <time>2022-10-22T15:43:13.330Z</time>
      </trkpt>
      <trkpt lat="47.796893" lon="12.201215">
        <ele>523.022494</ele>
        <time>2022-10-22T15:43:47.619Z</time>
      </trkpt>
      <trkpt lat="47.796715" lon="12.202626">
        <ele>521.958174</ele>
        <time>2022-10-22T15:44:09.627Z</time>
      </trkpt>
      <trkpt lat="47.796781" lon="12.202625">
        <ele>521.738890</ele>
        <time>2022-10-22T15:44:11.050Z</time>
      </trkpt>
      <trkpt lat="47.796502" lon="12.204815">
        <ele>515.319769</ele>
        <time>2022-10-22T15:44:34.172Z</time>
      </trkpt>
      <trkpt lat="47.796455" lon="12.204816">
        <ele>515.009364</ele>
        <time>2022-10-22T15:44:34.807Z</time>
      </trkpt>
      <trkpt lat="47.796323" lon="12.205414">
        <ele>512.217006</ele>
        <time>2022-10-22T15:44:41.044Z</time>
      </trkpt>
      <trkpt lat="47.796238" lon="12.205765">
        <ele>510.561831</ele>
        <time>2022-10-22T15:44:44.883Z</time>
      </trkpt>
      <trkpt lat="47.796044" lon="12.206380">
        <ele>507.547771</ele>
        <time>2022-10-22T15:44:51.662Z</time>
      </trkpt>
      <trkpt lat="47.795798" lon="12.207229">
        <ele>505.255019</ele>
        <time>2022-10-22T15:45:01.411Z</time>
      </trkpt>
      <trkpt lat="47.795768" lon="12.207169">
        <ele>505.129995</ele>
        <time>2022-10-22T15:45:02.266Z</time>
      </trkpt>
      <trkpt lat="47.795597" lon="12.207312">
        <ele>504.641956</ele>
        <time>2022-10-22T15:45:08.287Z</time>
      </trkpt>
      <trkpt lat="47.795644" lon="12.207608">
        <ele>504.133540</ele>
        <time>2022-10-22T15:45:12.028Z</time>
      </trkpt>
      <trkpt lat="47.795565" lon="12.208259">
        <ele>503.027739</ele>
        <time>2022-10-22T15:45:20.561Z</time>
      </trkpt>
      <trkpt lat="47.795541" lon="12.209072">
        <ele>501.960683</ele>
        <time>2022-10-22T15:45:32.148Z</time>
      </trkpt>
      <trkpt lat="47.795588" lon="12.211420">
        <ele>503.628679</ele>
        <time>2022-10-22T15:46:15.948Z</time>
      </trkpt>
      <trkpt lat="47.795667" lon="12.216085">
        <ele>510.562682</ele>
        <time>2022-10-22T15:48:00.427Z</time>
      </trkpt>
      <trkpt lat="47.795676" lon="12.217148">
        <ele>512.456523</ele>
        <time>2022-10-22T15:48:26.706Z</time>
      </trkpt>
      <trkpt lat="47.795676" lon="12.217480">
        <ele>513.222246</ele>
        <time>2022-10-22T15:48:35.566Z</time>
      </trkpt>
      <trkpt lat="47.795631" lon="12.219256">
        <ele>517.321317</ele>
        <time>2022-10-22T15:49:23.820Z</time>
      </trkpt>
      <trkpt lat="47.795548" lon="12.220338">
        <ele>519.263344</ele>
        <time>2022-10-22T15:49:52.963Z</time>
      </trkpt>
      <trkpt lat="47.795293" lon="12.222898">
        <ele>522.500066</ele>
        <time>2022-10-22T15:50:47.057Z</time>
      </trkpt>
      <trkpt lat="47.795226" lon="12.223872">
        <ele>522.978558</ele>
        <time>2022-10-22T15:51:02.678Z</time>
      </trkpt>
      <trkpt lat="47.795268" lon="12.225490">
        <ele>523.800655</ele>
        <time>2022-10-22T15:51:28.475Z</time>
      </trkpt>
      <trkpt lat="47.795287" lon="12.226667">
        <ele>524.445483</ele>
        <time>2022-10-22T15:51:49.830Z</time>
      </trkpt>
      <trkpt lat="47.795257" lon="12.227426">
        <ele>524.861906</ele>
        <time>2022-10-22T15:52:03.471Z</time>
      </trkpt>
      <trkpt lat="47.795285" lon="12.228193">
        <ele>525.467959</ele>
        <time>2022-10-22T15:52:17.824Z</time>
      </trkpt>
      <trkpt lat="47.795329" lon="12.228500">
        <ele>525.745661</ele>
        <time>2022-10-22T15:52:23.806Z</time>
      </trkpt>
      <trkpt lat="47.795361" lon="12.228621">
        <ele>525.860700</ele>
        <time>2022-10-22T15:52:26.474Z</time>
      </trkpt>
      <trkpt lat="47.795409" lon="12.228796">
        <ele>526.027922</ele>
        <time>2022-10-22T15:52:30.110Z</time>
      </trkpt>
      <trkpt lat="47.795836" lon="12.229764">
        <ele>527.052379</ele>
        <time>2022-10-22T15:52:52.942Z</time>
      </trkpt>
      <trkpt lat="47.795610" lon="12.229873">
        <ele>527.368014</ele>
        <time>2022-10-22T15:53:00.196Z</time>
      </trkpt>
      <trkpt lat="47.795660" lon="12.231052">
        <ele>528.603816</ele>
        <time>2022-10-22T15:53:23.361Z</time>
      </trkpt>
      <trkpt lat="47.795728" lon="12.233560">
        <ele>531.390490</ele>
        <time>2022-10-22T15:54:15.023Z</time>
      </trkpt>
      <trkpt lat="47.795772" lon="12.235593">
        <ele>534.058334</ele>
        <time>2022-10-22T15:54:57.168Z</time>
      </trkpt>
      <trkpt lat="47.795464" lon="12.241422">
        <ele>544.865426</ele>
        <time>2022-10-22T15:57:20.976Z</time>
      </trkpt>
      <trkpt lat="47.795477" lon="12.242668">
        <ele>547.092469</ele>
        <time>2022-10-22T15:57:50.624Z</time>
      </trkpt>
      <trkpt lat="47.795634" lon="12.244063">
        <ele>549.451087</ele>
        <time>2022-10-22T15:58:23.285Z</time>
      </trkpt>
      <trkpt lat="47.796568" lon="12.247775">
        <ele>555.562973</ele>
        <time>2022-10-22T15:59:53.672Z</time>
      </trkpt>
      <trkpt lat="47.797580" lon="12.250628">
        <ele>559.814785</ele>
        <time>2022-10-22T16:01:02.549Z</time>
      </trkpt>
      <trkpt lat="47.797717" lon="12.251370">
        <ele>560.641706</ele>
        <time>2022-10-22T16:01:18.257Z</time>
      </trkpt>
      <trkpt lat="47.797725" lon="12.251816">
        <ele>561.121146</ele>
        <time>2022-10-22T16:01:27.489Z</time>
      </trkpt>
      <trkpt lat="47.797690" lon="12.252622">
        <ele>561.989077</ele>
        <time>2022-10-22T16:01:43.768Z</time>
      </trkpt>
      <trkpt lat="47.797610" lon="12.253160">
        <ele>562.581204</ele>
        <time>2022-10-22T16:01:54.669Z</time>
      </trkpt>
      <trkpt lat="47.797592" lon="12.253307">
        <ele>562.736092</ele>
        <time>2022-10-22T16:01:57.631Z</time>
      </trkpt>
      <trkpt lat="47.797518" lon="12.253997">
        <ele>563.427784</ele>
        <time>2022-10-22T16:02:11.415Z</time>
      </trkpt>
      <trkpt lat="47.797552" lon="12.254939">
        <ele>564.361629</ele>
        <time>2022-10-22T16:02:30.282Z</time>
      </trkpt>
      <trkpt lat="47.797643" lon="12.256051">
        <ele>565.454815</ele>
        <time>2022-10-22T16:02:52.653Z</time>
      </trkpt>
      <trkpt lat="47.797825" lon="12.256926">
        <ele>566.266637</ele>
        <time>2022-10-22T16:03:10.220Z</time>
      </trkpt>
      <trkpt lat="47.798579" lon="12.259960">
        <ele>569.035841</ele>
        <time>2022-10-22T16:04:12.505Z</time>
      </trkpt>
      <trkpt lat="47.798727" lon="12.260759">
        <ele>569.720488</ele>
        <time>2022-10-22T16:04:28.066Z</time>
      </trkpt>
      <trkpt lat="47.798820" lon="12.261731">
        <ele>570.623791</ele>
        <time>2022-10-22T16:04:46.675Z</time>
      </trkpt>
      <trkpt lat="47.799041" lon="12.262820">
        <ele>571.701950</ele>
        <time>2022-10-22T16:05:08.631Z</time>
      </trkpt>
      <trkpt lat="47.800411" lon="12.268372">
        <ele>578.548979</ele>
        <time>2022-10-22T16:07:12.071Z</time>
      </trkpt>
      <trkpt lat="47.801358" lon="12.272683">
        <ele>584.362579</ele>
        <time>2022-10-22T16:08:49.605Z</time>
      </trkpt>
      <trkpt lat="47.801645" lon="12.274289">
        <ele>586.454522</ele>
        <time>2022-10-22T16:09:24.535Z</time>
      </trkpt>
      <trkpt lat="47.801762" lon="12.275140">
        <ele>587.520059</ele>
        <time>2022-10-22T16:09:42.411Z</time>
      </trkpt>
      <trkpt lat="47.801940" lon="12.277182">
        <ele>590.373032</ele>
        <time>2022-10-22T16:10:26.476Z</time>
      </trkpt>
      <trkpt lat="47.802219" lon="12.279478">
        <ele>593.956955</ele>
        <time>2022-10-22T16:11:21.753Z</time>
      </trkpt>
      <trkpt lat="47.802213" lon="12.280112">
        <ele>594.785332</ele>
        <time>2022-10-22T16:11:36.605Z</time>
      </trkpt>
      <trkpt lat="47.802402" lon="12.281293">
        <ele>596.371446</ele>
        <time>2022-10-22T16:12:01.801Z</time>
      </trkpt>
      <trkpt lat="47.802459" lon="12.281679">
        <ele>596.817146</ele>
        <time>2022-10-22T16:12:08.916Z</time>
      </trkpt>
      <trkpt lat="47.802396" lon="12.281764">
        <ele>596.884185</ele>
        <time>2022-10-22T16:12:11.464Z</time>
      </trkpt>
      <trkpt lat="47.802748" lon="12.283438">
        <ele>597.813195</ele>
        <time>2022-10-22T16:12:42.987Z</time>
      </trkpt>
      <trkpt lat="47.802801" lon="12.283687">
        <ele>597.951532</ele>
        <time>2022-10-22T16:12:46.974Z</time>
      </trkpt>
      <trkpt lat="47.802882" lon="12.284008">
        <ele>598.133140</ele>
        <time>2022-10-22T16:12:52.568Z</time>
      </trkpt>
      <trkpt lat="47.802991" lon="12.284443">
        <ele>598.305507</ele>
        <time>2022-10-22T16:12:59.888Z</time>
      </trkpt>
      <trkpt lat="47.803088" lon="12.285096">
        <ele>598.523946</ele>
        <time>2022-10-22T16:13:10.376Z</time>
      </trkpt>
      <trkpt lat="47.803085" lon="12.285471">
        <ele>598.646438</ele>
        <time>2022-10-22T16:13:16.621Z</time>
      </trkpt>
      <trkpt lat="47.803087" lon="12.285896">
        <ele>598.785257</ele>
        <time>2022-10-22T16:13:23.677Z</time>
      </trkpt>
      <trkpt lat="47.803028" lon="12.286664">
        <ele>599.037739</ele>
        <time>2022-10-22T16:13:37.440Z</time>
      </trkpt>
      <trkpt lat="47.803026" lon="12.286825">
        <ele>599.097667</ele>
        <time>2022-10-22T16:13:40.134Z</time>
      </trkpt>
      <trkpt lat="47.803061" lon="12.287253">
        <ele>599.274735</ele>
        <time>2022-10-22T16:13:47.328Z</time>
      </trkpt>
      <trkpt lat="47.803085" lon="12.287621">
        <ele>599.426575</ele>
        <time>2022-10-22T16:13:53.209Z</time>
      </trkpt>
      <trkpt lat="47.803064" lon="12.287900">
        <ele>599.541871</ele>
        <time>2022-10-22T16:13:57.519Z</time>
      </trkpt>
      <trkpt lat="47.803003" lon="12.288704">
        <ele>599.874156</ele>
        <time>2022-10-22T16:14:11.085Z</time>
      </trkpt>
      <trkpt lat="47.803001" lon="12.288801">
        <ele>599.914010</ele>
        <time>2022-10-22T16:14:12.719Z</time>
      </trkpt>
      <trkpt lat="47.803001" lon="12.289054">
        <ele>600.017912</ele>
        <time>2022-10-22T16:14:17.372Z</time>
      </trkpt>
      <trkpt lat="47.803011" lon="12.289182">
        <ele>600.070833</ele>
        <time>2022-10-22T16:14:19.684Z</time>
      </trkpt>
      <trkpt lat="47.803064" lon="12.289431">
        <ele>600.192219</ele>
        <time>2022-10-22T16:14:24.366Z</time>
      </trkpt>
      <trkpt lat="47.803091" lon="12.289534">
        <ele>600.276380</ele>
        <time>2022-10-22T16:14:26.472Z</time>
      </trkpt>
      <trkpt lat="47.803128" lon="12.289660">
        <ele>600.381053</ele>
        <time>2022-10-22T16:14:28.963Z</time>
      </trkpt>
      <trkpt lat="47.803177" lon="12.289859">
        <ele>600.542385</ele>
        <time>2022-10-22T16:14:32.716Z</time>
      </trkpt>
      <trkpt lat="47.803091" lon="12.289904">
        <ele>600.645687</ele>
        <time>2022-10-22T16:14:35.333Z</time>
      </trkpt>
      <trkpt lat="47.802498" lon="12.290214">
        <ele>601.357924</ele>
        <time>2022-10-22T16:14:52.564Z</time>
      </trkpt>
      <trkpt lat="47.802417" lon="12.290949">
        <ele>601.924876</ele>
        <time>2022-10-22T16:15:07.009Z</time>
      </trkpt>
      <trkpt lat="47.802172" lon="12.291723">
        <ele>602.558700</ele>
        <time>2022-10-22T16:15:23.667Z</time>
      </trkpt>
      <trkpt lat="47.801954" lon="12.292124">
        <ele>602.933147</ele>
        <time>2022-10-22T16:15:33.718Z</time>
      </trkpt>
      <trkpt lat="47.801812" lon="12.292270">
        <ele>603.119630</ele>
        <time>2022-10-22T16:15:38.820Z</time>
      </trkpt>
      <trkpt lat="47.801799" lon="12.292347">
        <ele>603.177258</ele>
        <time>2022-10-22T16:15:40.278Z</time>
      </trkpt>
      <trkpt lat="47.801851" lon="12.292495">
        <ele>603.298491</ele>
        <time>2022-10-22T16:15:43.137Z</time>
      </trkpt>
      <trkpt lat="47.801325" lon="12.293473">
        <ele>604.167608</ele>
        <time>2022-10-22T16:16:05.709Z</time>
      </trkpt>
      <trkpt lat="47.800814" lon="12.294060">
        <ele>604.428843</ele>
        <time>2022-10-22T16:16:21.740Z</time>
      </trkpt>
      <trkpt lat="47.800500" lon="12.294340">
        <ele>604.576987</ele>
        <time>2022-10-22T16:16:30.018Z</time>
      </trkpt>
      <trkpt lat="47.798986" lon="12.295224">
        <ele>605.666827</ele>
        <time>2022-10-22T16:17:09.106Z</time>
      </trkpt>
      <trkpt lat="47.798771" lon="12.295275">
        <ele>605.859505</ele>
        <time>2022-10-22T16:17:14.875Z</time>
      </trkpt>
      <trkpt lat="47.798318" lon="12.295206">
        <ele>606.262509</ele>
        <time>2022-10-22T16:17:28.073Z</time>
      </trkpt>
      <trkpt lat="47.798227" lon="12.295245">
        <ele>606.346316</ele>
        <time>2022-10-22T16:17:30.997Z</time>
      </trkpt>
      <trkpt lat="47.798136" lon="12.295293">
        <ele>606.431758</ele>
        <time>2022-10-22T16:17:33.778Z</time>
      </trkpt>
      <trkpt lat="47.798069" lon="12.295383">
        <ele>606.585302</ele>
        <time>2022-10-22T16:17:36.466Z</time>
      </trkpt>
      <trkpt lat="47.798064" lon="12.295499">
        <ele>606.759753</ele>
        <time>2022-10-22T16:17:39.054Z</time>
      </trkpt>
      <trkpt lat="47.798048" lon="12.295845">
        <ele>607.280259</ele>
        <time>2022-10-22T16:17:46.063Z</time>
      </trkpt>
      <trkpt lat="47.797948" lon="12.296013">
        <ele>607.617138</ele>
        <time>2022-10-22T16:17:50.996Z</time>
      </trkpt>
      <trkpt lat="47.797963" lon="12.296077">
        <ele>607.718868</ele>
        <time>2022-10-22T16:17:52.641Z</time>
      </trkpt>
      <trkpt lat="47.797499" lon="12.296518">
        <ele>608.948794</ele>
        <time>2022-10-22T16:18:10.904Z</time>
      </trkpt>
      <trkpt lat="47.797455" lon="12.296616">
        <ele>609.125702</ele>
        <time>2022-10-22T16:18:13.796Z</time>
      </trkpt>
      <trkpt lat="47.797417" lon="12.296842">
        <ele>609.475351</ele>
        <time>2022-10-22T16:18:19.137Z</time>
      </trkpt>
      <trkpt lat="47.797381" lon="12.296977">
        <ele>609.693342</ele>
        <time>2022-10-22T16:18:22.243Z</time>
      </trkpt>
      <trkpt lat="47.797237" lon="12.297120">
        <ele>610.080079</ele>
        <time>2022-10-22T16:18:28.360Z</time>
      </trkpt>
      <trkpt lat="47.796782" lon="12.297527">
        <ele>611.715636</ele>
        <time>2022-10-22T16:18:47.374Z</time>
      </trkpt>
      <trkpt lat="47.794914" lon="12.299561">
        <ele>619.284284</ele>
        <time>2022-10-22T16:20:22.872Z</time>
      </trkpt>
      <trkpt lat="47.794724" lon="12.299853">
        <ele>620.065731</ele>
        <time>2022-10-22T16:20:33.013Z</time>
      </trkpt>
      <trkpt lat="47.794488" lon="12.300380">
        <ele>621.283241</ele>
        <time>2022-10-22T16:20:47.322Z</time>
      </trkpt>
      <trkpt lat="47.794369" lon="12.300845">
        <ele>621.907639</ele>
        <time>2022-10-22T16:20:57.559Z</time>
      </trkpt>
      <trkpt lat="47.794293" lon="12.301304">
        <ele>621.771946</ele>
        <time>2022-10-22T16:21:06.434Z</time>
      </trkpt>
      <trkpt lat="47.794133" lon="12.303497">
        <ele>620.825009</ele>
        <time>2022-10-22T16:21:35.955Z</time>
      </trkpt>
      <trkpt lat="47.793810" lon="12.304719">
        <ele>617.730144</ele>
        <time>2022-10-22T16:21:51.475Z</time>
      </trkpt>
      <trkpt lat="47.793028" lon="12.306336">
        <ele>611.880946</ele>
        <time>2022-10-22T16:22:12.702Z</time>
      </trkpt>
      <trkpt lat="47.792238" lon="12.308134">
        <ele>603.961919</ele>
        <time>2022-10-22T16:22:34.834Z</time>
      </trkpt>
      <trkpt lat="47.791690" lon="12.309019">
        <ele>600.890943</ele>
        <time>2022-10-22T16:22:47.640Z</time>
      </trkpt>
      <trkpt lat="47.791159" lon="12.309753">
        <ele>598.138713</ele>
        <time>2022-10-22T16:23:00.290Z</time>
      </trkpt>
      <trkpt lat="47.789520" lon="12.311568">
        <ele>597.363775</ele>
        <time>2022-10-22T16:23:45.147Z</time>
      </trkpt>
      <trkpt lat="47.787466" lon="12.313946">
        <ele>599.050209</ele>
        <time>2022-10-22T16:24:53.876Z</time>
      </trkpt>
      <trkpt lat="47.787172" lon="12.314251">
        <ele>599.259050</ele>
        <time>2022-10-22T16:25:02.686Z</time>
      </trkpt>
      <trkpt lat="47.786713" lon="12.314682">
        <ele>599.554961</ele>
        <time>2022-10-22T16:25:15.637Z</time>
      </trkpt>
      <trkpt lat="47.785133" lon="12.315923">
        <ele>599.921316</ele>
        <time>2022-10-22T16:25:56.754Z</time>
      </trkpt>
      <trkpt lat="47.784056" lon="12.316933">
        <ele>600.364378</ele>
        <time>2022-10-22T16:26:26.702Z</time>
      </trkpt>
      <trkpt lat="47.783293" lon="12.317792">
        <ele>600.941533</ele>
        <time>2022-10-22T16:26:50.594Z</time>
      </trkpt>
      <trkpt lat="47.782842" lon="12.318381">
        <ele>601.460535</ele>
        <time>2022-10-22T16:27:06.548Z</time>
      </trkpt>
      <trkpt lat="47.782867" lon="12.318447">
        <ele>601.504570</ele>
        <time>2022-10-22T16:27:08.061Z</time>
      </trkpt>
      <trkpt lat="47.782744" lon="12.318602">
        <ele>601.643977</ele>
        <time>2022-10-22T16:27:12.475Z</time>
      </trkpt>
      <trkpt lat="47.782657" lon="12.318717">
        <ele>601.744626</ele>
        <time>2022-10-22T16:27:15.661Z</time>
      </trkpt>
      <trkpt lat="47.782619" lon="12.318655">
        <ele>601.793399</ele>
        <time>2022-10-22T16:27:19.582Z</time>
      </trkpt>
      <trkpt lat="47.782343" lon="12.319072">
        <ele>602.141788</ele>
        <time>2022-10-22T16:27:30.602Z</time>
      </trkpt>
      <trkpt lat="47.782001" lon="12.319497">
        <ele>602.597557</ele>
        <time>2022-10-22T16:27:42.967Z</time>
      </trkpt>
      <trkpt lat="47.781314" lon="12.319915">
        <ele>603.356773</ele>
        <time>2022-10-22T16:28:03.685Z</time>
      </trkpt>
      <trkpt lat="47.780864" lon="12.320216">
        <ele>603.861449</ele>
        <time>2022-10-22T16:28:16.931Z</time>
      </trkpt>
      <trkpt lat="47.780596" lon="12.320574">
        <ele>604.120064</ele>
        <time>2022-10-22T16:28:26.340Z</time>
      </trkpt>
      <trkpt lat="47.780472" lon="12.320929">
        <ele>604.294865</ele>
        <time>2022-10-22T16:28:33.226Z</time>
      </trkpt>
      <trkpt lat="47.780428" lon="12.320905">
        <ele>604.325333</ele>
        <time>2022-10-22T16:28:34.340Z</time>
      </trkpt>
      <trkpt lat="47.780117" lon="12.320908">
        <ele>604.527541</ele>
        <time>2022-10-22T16:28:42.158Z</time>
      </trkpt>
      <trkpt lat="47.779302" lon="12.321426">
        <ele>605.105513</ele>
        <time>2022-10-22T16:29:05.214Z</time>
      </trkpt>
      <trkpt lat="47.779087" lon="12.321336">
        <ele>605.295757</ele>
        <time>2022-10-22T16:29:11.072Z</time>
      </trkpt>
      <trkpt lat="47.778973" lon="12.321171">
        <ele>605.431217</ele>
        <time>2022-10-22T16:29:15.169Z</time>
      </trkpt>
      <trkpt lat="47.778438" lon="12.320931">
        <ele>605.907186</ele>
        <time>2022-10-22T16:29:30.165Z</time>
      </trkpt>
      <trkpt lat="47.778364" lon="12.321252">
        <ele>606.101440</ele>
        <time>2022-10-22T16:29:36.318Z</time>
      </trkpt>
      <trkpt lat="47.778347" lon="12.321362">
        <ele>606.166049</ele>
        <time>2022-10-22T16:29:38.409Z</time>
      </trkpt>
      <trkpt lat="47.778323" lon="12.321779">
        <ele>606.405617</ele>
        <time>2022-10-22T16:29:46.092Z</time>
      </trkpt>
      <trkpt lat="47.778306" lon="12.322014">
        <ele>606.540911</ele>
        <time>2022-10-22T16:29:50.480Z</time>
      </trkpt>
      <trkpt lat="47.778289" lon="12.322113">
        <ele>606.599400</ele>
        <time>2022-10-22T16:29:52.369Z</time>
      </trkpt>
      <trkpt lat="47.778244" lon="12.322312">
        <ele>606.741174</ele>
        <time>2022-10-22T16:29:56.370Z</time>
      </trkpt>
      <trkpt lat="47.778173" lon="12.322512">
        <ele>606.901885</ele>
        <time>2022-10-22T16:30:00.659Z</time>
      </trkpt>
      <trkpt lat="47.777510" lon="12.322485">
        <ele>607.603134</ele>
        <time>2022-10-22T16:30:19.209Z</time>
      </trkpt>
      <trkpt lat="47.776555" lon="12.322439">
        <ele>608.531797</ele>
        <time>2022-10-22T16:30:45.458Z</time>
      </trkpt>
      <trkpt lat="47.775695" lon="12.322408">
        <ele>608.531797</ele>
        <time>2022-10-22T16:31:07.322Z</time>
      </trkpt>
    </trkseg>
  </trk>
</gpx>